M I D A S
Marine Information and Data Acquisition System
Tripno 725 of the Zeeleeuw from 2004-05-28 07:30:34 to 2004-05-28 13:58:28
Back to CruiseResearch ActivitiesStationsMapUnderway DataData graphs

EquipmentUnitsComment
TimeDGPSUTC
LatitudeDGPSDM.mWGS84
LongitudeDGPSDM.mWGS84
TemperatureSBE03/SBE38deg celciusITS90
ConductivitySBE21S/mITS90
SalinitySBE21 Practical Salinity Units
ChlorophylAChelsea fluorimeterg/lCalibrated in Aceton
Missing or incorrect values are displayed as -999
Sea surface data collected by the RV Zeeleeuw from 2004-05-28 07:30:34 to 2004-05-28 13:58:28
                                                                                    Next 1000 lines
Time Latitude Longitude Temperature Conductivity Salinity ChlorophylA
2004-05-28 07:30:47 51°9.118 2°34.795 14.835227 3.984808 32.206993 10.915913
2004-05-28 07:30:54 51°9.121 2°34.788 14.835227 3.984808 32.206993 10.915913
2004-05-28 07:30:59 51°9.123 2°34.782 14.833744 3.984597 32.205717 10.983332
2004-05-28 07:31:04 51°9.124 2°34.777 14.830953 3.984386 32.203194 10.949623
2004-05-28 07:31:10 51°9.126 2°34.771 14.832479 3.985335 32.21299 10.882204
2004-05-28 07:31:14 51°9.127 2°34.767 14.832872 3.985335 32.213615 10.882204
2004-05-28 07:31:19 51°9.129 2°34.762 14.831913 3.98544 32.212692 10.882204
2004-05-28 07:31:23 51°9.13 2°34.758 14.833395 3.985968 32.21869 10.848494
2004-05-28 07:31:29 51°9.131 2°34.752 14.833395 3.985968 32.21869 10.848494
2004-05-28 07:31:34 51°9.133 2°34.747 14.832479 3.986178 32.22059 10.814785
2004-05-28 07:31:43 51°9.135 2°34.738 14.834922 3.986495 32.222815 10.814785
2004-05-28 07:31:50 51°9.137 2°34.731 14.835576 3.986811 32.22504 10.747366
2004-05-28 07:31:52 51°9.137 2°34.729 14.835663 3.987444 32.231989 10.747366
2004-05-28 07:31:59 51°9.139 2°34.722 14.835663 3.987444 32.231989 10.747366
2004-05-28 07:32:04 51°9.14 2°34.717 14.835707 3.98776 32.234214 10.713657
2004-05-28 07:32:09 51°9.141 2°34.712 14.836099 3.987654 32.232015 10.747366
2004-05-28 07:32:14 51°9.142 2°34.707 14.838018 3.987654 32.232015 10.713657
2004-05-28 07:32:19 51°9.143 2°34.702 14.841114 3.988287 32.23709 10.713657
2004-05-28 07:32:23 51°9.144 2°34.698 14.841288 3.988076 32.235815 10.713657
2004-05-28 07:32:28 51°9.145 2°34.693 14.841288 3.988076 32.235815 10.713657
2004-05-28 07:32:34 51°9.146 2°34.687 14.841724 3.988498 32.23899 10.679947
2004-05-28 07:32:40 51°9.147 2°34.681 14.841463 3.98913 32.245314 10.646238
2004-05-28 07:32:42 51°9.147 2°34.679 14.842597 3.988919 32.240916 10.612529
2004-05-28 07:32:50 51°9.149 2°34.671 14.842335 3.988919 32.239666 10.646238
2004-05-28 07:32:53 51°9.15 2°34.668 14.844036 3.989341 32.242216 10.646238
2004-05-28 07:33:00 51°9.151 2°34.661 14.844036 3.989341 32.242216 10.646238
2004-05-28 07:33:04 51°9.152 2°34.657 14.845998 3.989446 32.241917 10.578819
2004-05-28 07:33:08 51°9.153 2°34.653 14.844777 3.989552 32.244116 10.612529
2004-05-28 07:33:14 51°9.154 2°34.647 14.845038 3.989763 32.245391 10.54511
2004-05-28 07:33:19 51°9.155 2°34.642 14.846565 3.989763 32.245391 10.578819
2004-05-28 07:33:24 51°9.156 2°34.637 14.846477 3.990712 32.253315 10.612529
2004-05-28 07:33:30 51°9.156 2°34.631 14.846477 3.990712 32.253315 10.612529
2004-05-28 07:33:34 51°9.157 2°34.627 14.847742 3.990606 32.253615 10.54511
2004-05-28 07:33:39 51°9.157 2°34.622 14.848745 3.987233 32.227591 10.54511
2004-05-28 07:33:44 51°9.158 2°34.617 14.847785 3.990606 32.251116 10.54511
2004-05-28 07:33:50 51°9.159 2°34.612 14.85014 3.99166 32.258114 10.5114
2004-05-28 07:33:54 51°9.159 2°34.608 14.850314 3.991555 32.257165 10.5114
2004-05-28 07:33:59 51°9.159 2°34.603 14.850314 3.991555 32.257165 10.5114
2004-05-28 07:34:03 51°9.159 2°34.599 14.849224 3.991449 32.257464 10.5114
2004-05-28 07:34:10 51°9.159 2°34.593 14.849355 3.991977 32.260964 10.477691
2004-05-28 07:34:14 51°9.159 2°34.589 14.85014 3.992293 32.263188 10.5114
2004-05-28 07:34:20 51°9.159 2°34.584 14.851884 3.992609 32.264163 10.443982
2004-05-28 07:34:22 51°9.158 2°34.582 14.851404 3.993558 32.272086 10.5114
2004-05-28 07:34:30 51°9.158 2°34.574 14.851404 3.993558 32.272086 10.5114
2004-05-28 07:34:34 51°9.158 2°34.57 14.851099 3.993347 32.271436 10.443982
2004-05-28 07:34:39 51°9.157 2°34.565 14.84796 3.993242 32.269236 10.477691
2004-05-28 07:34:43 51°9.157 2°34.561 14.845736 3.993874 32.278061 10.443982
2004-05-28 07:34:49 51°9.156 2°34.555 14.839719 3.994296 32.278734 10.477691
2004-05-28 07:34:54 51°9.156 2°34.55 14.834878 3.994296 32.278734 10.477691
2004-05-28 07:35:03 51°9.155 2°34.541 14.832043 3.995034 32.285383 10.443982
2004-05-28 07:35:10 51°9.154 2°34.534 14.826766 3.994823 32.285359 10.443982
2004-05-28 07:35:14 51°9.153 2°34.53 14.820311 3.994928 32.28881 10.5114
2004-05-28 07:35:19 51°9.153 2°34.524 14.817519 3.995983 32.302065 10.477691
2004-05-28 07:35:24 51°9.152 2°34.519 14.811019 3.996404 32.308369 10.5114
2004-05-28 07:35:30 51°9.151 2°34.513 14.811019 3.996404 32.308369 10.5114
2004-05-28 07:35:32 51°9.151 2°34.511 14.81115 3.99651 32.312449 10.54511
2004-05-28 07:35:39 51°9.15 2°34.503 14.811979 3.996615 32.317783 10.5114
2004-05-28 07:35:44 51°9.149 2°34.498 14.808445 3.996826 32.323443 10.578819
2004-05-28 07:35:50 51°9.148 2°34.492 14.808227 3.997564 32.334484 10.612529
2004-05-28 07:35:54 51°9.147 2°34.488 14.80574 3.99767 32.337316 10.612529
2004-05-28 07:35:59 51°9.146 2°34.482 14.80574 3.99767 32.337316 10.612529
2004-05-28 07:36:02 51°9.146 2°34.479 14.808445 3.997986 32.341422 10.646238
2004-05-28 07:36:10 51°9.144 2°34.471 14.805348 3.998197 32.345205 10.612529
2004-05-28 07:36:14 51°9.143 2°34.467 14.806918 3.997986 32.343304 10.612529
2004-05-28 07:36:16 51°9.143 2°34.464 14.808227 3.998302 32.347411 10.578819
2004-05-28 07:36:28 51°9.141 2°34.451 14.813549 3.998302 32.349292 10.646238
2004-05-28 07:36:34 51°9.14 2°34.445 14.809536 3.998302 32.34992 10.578819
2004-05-28 07:36:38 51°9.139 2°34.441 14.809449 3.998513 32.351194 10.54511
2004-05-28 07:36:43 51°9.138 2°34.435 14.811543 3.998092 32.347391 10.578819
2004-05-28 07:36:48 51°9.137 2°34.43 14.811892 3.997564 32.342009 10.5114
2004-05-28 07:36:53 51°9.136 2°34.424 14.811892 3.997564 32.342009 10.5114
2004-05-28 07:36:58 51°9.136 2°34.419 14.811892 3.998197 32.34646 10.578819
2004-05-28 07:37:03 51°9.135 2°34.413 14.81512 3.998302 32.348038 10.54511
2004-05-28 07:37:08 51°9.134 2°34.408 14.813375 3.998197 32.34646 10.5114
2004-05-28 07:37:14 51°9.133 2°34.402 14.813986 3.998513 32.348685 10.5114
2004-05-28 07:37:18 51°9.132 2°34.397 14.811543 3.998092 32.343627 10.477691
2004-05-28 07:37:22 51°9.131 2°34.393 14.811543 3.998092 32.343627 10.477691
2004-05-28 07:37:34 51°9.129 2°34.38 14.811674 3.99904 32.352185 10.443982
2004-05-28 07:37:41 51°9.128 2°34.373 14.811674 3.99904 32.352185 10.443982
2004-05-28 07:37:46 51°9.127 2°34.367 14.809231 3.99904 32.351558 10.477691
2004-05-28 07:37:51 51°9.126 2°34.362 14.809318 3.998724 32.34996 10.477691
2004-05-28 07:37:56 51°9.125 2°34.356 14.810976 3.999357 32.356293 10.54511
2004-05-28 07:38:08 51°9.123 2°34.344 14.811412 3.999778 32.360724 10.477691
2004-05-28 07:38:13 51°9.122 2°34.338 14.8091 3.999989 32.361998 10.578819
2004-05-28 07:38:19 51°9.121 2°34.332 14.807485 4.0002 32.363273 10.578819
2004-05-28 07:38:23 51°9.12 2°34.327 14.807485 4.0002 32.363273 10.578819
2004-05-28 07:38:28 51°9.119 2°34.322 14.806307 4.000833 32.370234 10.578819
2004-05-28 07:38:33 51°9.119 2°34.316 14.801988 4.000938 32.371185 10.54511
2004-05-28 07:38:39 51°9.117 2°34.309 14.801683 4.001149 32.372459 10.612529
2004-05-28 07:38:43 51°9.117 2°34.304 14.799108 4.001676 32.37847 10.578819
2004-05-28 07:38:46 51°9.116 2°34.301 14.801334 4.001992 32.382579 10.612529
2004-05-28 07:38:54 51°9.115 2°34.292 14.801334 4.001992 32.382579 10.612529
2004-05-28 07:38:58 51°9.114 2°34.287 14.798585 4.002519 32.38922 10.612529
2004-05-28 07:39:02 51°9.113 2°34.282 14.799327 4.003468 32.399037 10.612529
2004-05-28 07:39:06 51°9.112 2°34.277 14.797974 4.003258 32.39902 10.612529
2004-05-28 07:39:13 51°9.111 2°34.269 14.800592 4.003574 32.401874 10.713657
2004-05-28 07:39:19 51°9.11 2°34.261 14.800592 4.003574 32.401874 10.713657
2004-05-28 07:39:23 51°9.109 2°34.257 14.803079 4.003785 32.404405 10.679947
2004-05-28 07:39:28 51°9.108 2°34.25 14.80273 4.004417 32.411371 10.679947
2004-05-28 07:39:32 51°9.107 2°34.245 14.803515 4.004312 32.411048 10.679947
2004-05-28 07:39:39 51°9.106 2°34.237 14.805522 4.004839 32.415177 10.713657
2004-05-28 07:39:44 51°9.105 2°34.231 14.805304 4.004628 32.411387 10.713657
2004-05-28 07:39:48 51°9.104 2°34.226 14.805653 4.004839 32.412662 10.646238
2004-05-28 07:39:52 51°9.103 2°34.221 14.805653 4.004839 32.412662 10.646238
2004-05-28 07:39:59 51°9.101 2°34.212 14.802555 4.005261 32.416467 10.679947
2004-05-28 07:40:02 51°9.101 2°34.208 14.803297 4.005471 32.417112 10.713657
2004-05-28 07:40:06 51°9.1 2°34.203 14.804257 4.005999 32.421869 10.713657
2004-05-28 07:40:12 51°9.099 2°34.195 14.803559 4.005893 32.41966 10.679947
2004-05-28 07:40:18 51°9.098 2°34.188 14.805435 4.006209 32.423772 10.679947
2004-05-28 07:40:23 51°9.096 2°34.182 14.805435 4.006209 32.423772 10.679947
2004-05-28 07:40:28 51°9.095 2°34.175 14.80417 4.00642 32.425675 10.679947
2004-05-28 07:40:32 51°9.095 2°34.17 14.801683 4.006631 32.428207 10.713657
2004-05-28 07:40:38 51°9.093 2°34.163 14.797843 4.006947 32.431061 10.713657
2004-05-28 07:40:42 51°9.092 2°34.158 14.797538 4.00758 32.43614 10.679947
2004-05-28 07:40:46 51°9.091 2°34.153 14.796752 4.00758 32.43614 10.713657
2004-05-28 07:40:54 51°9.089 2°34.143 14.796752 4.00758 32.43614 10.713657
2004-05-28 07:40:59 51°9.088 2°34.136 14.796752 4.008002 32.441205 10.646238
2004-05-28 07:41:03 51°9.087 2°34.131 14.793959 4.008423 32.446269 10.713657
2004-05-28 07:41:08 51°9.086 2°34.125 14.793349 4.008634 32.449431 10.747366
2004-05-28 07:41:13 51°9.084 2°34.119 14.791734 4.008845 32.452594 10.713657
2004-05-28 07:41:18 51°9.083 2°34.113 14.78785 4.009267 32.45766 10.747366
2004-05-28 07:41:22 51°9.082 2°34.108 14.78785 4.009267 32.45766 10.747366
2004-05-28 07:41:28 51°9.08 2°34.1 14.781391 4.009899 32.464 10.747366
2004-05-28 07:41:31 51°9.08 2°34.097 14.778816 4.010321 32.469697 10.747366
2004-05-28 07:41:46 51°9.076 2°34.078 14.771658 4.011165 32.479832 10.814785
2004-05-28 07:41:50 51°9.075 2°34.073 14.767991 4.011586 32.486161 10.848494
2004-05-28 07:41:55 51°9.074 2°34.067 14.7638 4.012641 32.497573 10.814785
2004-05-28 07:41:58 51°9.074 2°34.063 14.759216 4.012641 32.499466 10.915913
2004-05-28 07:42:03 51°9.073 2°34.056 14.759216 4.012641 32.499466 10.915913
2004-05-28 07:42:10 51°9.071 2°34.048 14.756858 4.013168 32.509274 10.848494
2004-05-28 07:42:16 51°9.07 2°34.04 14.754588 4.013484 32.515287 10.915913
2004-05-28 07:42:20 51°9.069 2°34.035 14.759609 4.013906 32.522886 10.949623
2004-05-28 07:42:26 51°9.068 2°34.028 14.760045 4.014222 32.528902 10.949623
2004-05-28 07:42:31 51°9.067 2°34.022 14.765634 4.014328 32.53175 10.983332
2004-05-28 07:42:35 51°9.066 2°34.017 14.765634 4.014328 32.53175 10.983332
2004-05-28 07:42:40 51°9.066 2°34.011 14.769955 4.014749 32.538088 10.983332
2004-05-28 07:42:46 51°9.064 2°34.004 14.773142 4.015066 32.541579 11.017042
2004-05-28 07:42:47 51°9.064 2°34.002 14.776895 4.014644 32.537767 10.983332
2004-05-28 07:42:55 51°9.063 2°33.993 14.781958 4.014644 32.534608 10.949623
2004-05-28 07:43:00 51°9.062 2°33.987 14.785624 4.014222 32.52827 10.983332
2004-05-28 07:43:05 51°9.06 2°33.981 14.785624 4.014222 32.52827 10.983332
2004-05-28 07:43:10 51°9.059 2°33.975 14.788374 4.015066 32.534628 10.983332
2004-05-28 07:43:15 51°9.058 2°33.969 14.791603 4.014855 32.528933 10.983332
2004-05-28 07:43:20 51°9.057 2°33.963 14.796447 4.01496 32.525465 10.949623
2004-05-28 07:43:25 51°9.056 2°33.957 14.799545 4.014855 32.521987 10.983332
2004-05-28 07:43:31 51°9.055 2°33.95 14.803733 4.015276 32.522009 10.949623
2004-05-28 07:43:35 51°9.054 2°33.945 14.803733 4.015276 32.522009 10.949623
2004-05-28 07:43:40 51°9.053 2°33.939 14.805522 4.01496 32.517259 10.915913
2004-05-28 07:43:44 51°9.052 2°33.934 14.806089 4.015171 32.516008 10.882204
2004-05-28 07:43:50 51°9.051 2°33.927 14.807529 4.015592 32.516662 10.915913
2004-05-28 07:43:54 51°9.05 2°33.922 14.808489 4.015171 32.5097 10.848494
2004-05-28 07:44:00 51°9.049 2°33.915 14.811499 4.015487 32.509402 10.848494
2004-05-28 07:44:05 51°9.047 2°33.909 14.811499 4.015487 32.509402 10.848494
2004-05-28 07:44:11 51°9.046 2°33.902 14.81464 4.015698 32.511306 10.814785
2004-05-28 07:44:15 51°9.045 2°33.897 14.8156 4.016014 32.5129 10.882204
2004-05-28 07:44:21 51°9.044 2°33.89 14.814945 4.015487 32.50625 10.848494
2004-05-28 07:44:26 51°9.043 2°33.884 14.816428 4.015803 32.507844 10.848494
2004-05-28 07:44:30 51°9.043 2°33.879 14.817301 4.015698 32.505001 10.848494
2004-05-28 07:44:35 51°9.042 2°33.873 14.817301 4.015698 32.505001 10.848494
2004-05-28 07:44:39 51°9.041 2°33.868 14.814553 4.015908 32.505013 10.814785
2004-05-28 07:44:46 51°9.039 2°33.859 14.813811 4.015908 32.503752 10.848494
2004-05-28 07:44:50 51°9.038 2°33.855 14.813026 4.016119 32.505655 10.814785
2004-05-28 07:44:54 51°9.038 2°33.85 14.8132 4.016646 32.509153 10.814785
2004-05-28 07:45:00 51°9.036 2°33.843 14.811761 4.016541 32.508201 10.814785
2004-05-28 07:45:06 51°9.035 2°33.835 14.811761 4.016541 32.508201 10.814785
2004-05-28 07:45:11 51°9.034 2°33.829 14.812851 4.016436 32.50788 10.848494
2004-05-28 07:45:14 51°9.034 2°33.826 14.811848 4.016646 32.511044 10.814785
2004-05-28 07:45:27 51°9.031 2°33.81 14.807049 4.016541 32.510723 10.848494
2004-05-28 07:45:32 51°9.03 2°33.804 14.804693 4.016963 32.514529 10.882204
2004-05-28 07:45:38 51°9.029 2°33.797 14.803428 4.016963 32.514529 10.882204
2004-05-28 07:45:48 51°9.027 2°33.785 14.799763 4.017385 32.521489 10.882204
2004-05-28 07:45:53 51°9.026 2°33.779 14.799763 4.017385 32.521489 10.882204
2004-05-28 07:45:59 51°9.025 2°33.772 14.80081 4.017385 32.522751 10.915913
2004-05-28 07:46:03 51°9.024 2°33.767 14.799196 4.017701 32.526237 10.915913
2004-05-28 07:46:08 51°9.024 2°33.761 14.799065 4.017595 32.527178 10.949623
2004-05-28 07:46:13 51°9.023 2°33.755 14.798803 4.018017 32.532247 10.949623
2004-05-28 07:46:18 51°9.021 2°33.749 14.800199 4.018017 32.532878 10.983332
2004-05-28 07:46:23 51°9.021 2°33.742 14.800199 4.018017 32.532878 10.983332
2004-05-28 07:46:28 51°9.02 2°33.736 14.799807 4.017701 32.531285 10.983332
2004-05-28 07:46:33 51°9.019 2°33.731 14.801072 4.017806 32.532236 10.949623
2004-05-28 07:46:39 51°9.018 2°33.724 14.80177 4.017595 32.531595 10.949623
2004-05-28 07:46:44 51°9.017 2°33.718 14.802032 4.017701 32.531916 10.915913
2004-05-28 07:46:46 51°9.016 2°33.716 14.802032 4.017701 32.531916 10.915913
2004-05-28 07:46:52 51°9.015 2°33.709 14.80622 4.017701 32.531916 10.983332
2004-05-28 07:46:58 51°9.013 2°33.702 14.806089 4.01749 32.530643 10.983332
2004-05-28 07:47:03 51°9.012 2°33.696 14.809318 4.017806 32.532236 10.949623
2004-05-28 07:47:08 51°9.011 2°33.691 14.809885 4.01749 32.52875 10.949623
2004-05-28 07:47:12 51°9.01 2°33.687 14.812546 4.017595 32.528439 10.949623
2004-05-28 07:47:18 51°9.009 2°33.68 14.813724 4.01749 32.526857 10.915913
2004-05-28 07:47:22 51°9.008 2°33.676 14.813724 4.01749 32.526857 10.915913
2004-05-28 07:47:26 51°9.007 2°33.672 14.815949 4.017806 32.527189 10.915913
2004-05-28 07:47:33 51°9.005 2°33.664 14.818959 4.017279 32.521799 10.915913
2004-05-28 07:47:38 51°9.003 2°33.659 14.818522 4.01749 32.52181 10.882204
2004-05-28 07:47:43 51°9.002 2°33.654 14.81922 4.017384 32.519597 10.915913
2004-05-28 07:47:47 51°9 2°33.649 14.819482 4.017806 32.522142 10.915913
2004-05-28 07:47:53 51°8.999 2°33.643 14.819482 4.017806 32.522142 10.915913
2004-05-28 07:47:58 51°8.997 2°33.638 14.821576 4.017806 32.520881 10.882204
2004-05-28 07:48:03 51°8.995 2°33.632 14.823146 4.018017 32.520892 10.882204
2004-05-28 07:48:06 51°8.994 2°33.629 14.8238 4.017912 32.51931 10.848494
2004-05-28 07:48:14 51°8.991 2°33.621 14.824193 4.018122 32.520583 10.882204
2004-05-28 07:48:16 51°8.991 2°33.619 14.825109 4.018228 32.520904 10.848494
2004-05-28 07:48:23 51°8.988 2°33.611 14.825109 4.018228 32.520904 10.848494
2004-05-28 07:48:28 51°8.987 2°33.606 14.827987 4.018333 32.521225 10.848494
2004-05-28 07:48:30 51°8.986 2°33.604 14.829688 4.018333 32.519333 10.814785
2004-05-28 07:48:39 51°8.983 2°33.594 14.828947 4.018333 32.518072 10.848494
2004-05-28 07:48:44 51°8.982 2°33.589 14.83152 4.018755 32.521248 10.848494
2004-05-28 07:48:47 51°8.981 2°33.586 14.832785 4.018439 32.517133 10.814785
2004-05-28 07:48:53 51°8.979 2°33.58 14.832785 4.018439 32.517133 10.814785
2004-05-28 07:48:59 51°8.977 2°33.573 14.833875 4.018439 32.516502 10.848494
2004-05-28 07:49:03 51°8.975 2°33.569 14.832218 4.018122 32.512388 10.781076
2004-05-28 07:49:08 51°8.973 2°33.564 14.833439 4.018017 32.510176 10.814785
2004-05-28 07:49:13 51°8.972 2°33.558 14.83418 4.018649 32.514624 10.814785
2004-05-28 07:49:19 51°8.97 2°33.552 14.83514 4.018649 32.513993 10.814785
2004-05-28 07:49:22 51°8.969 2°33.549 14.83514 4.018649 32.513993 10.814785
2004-05-28 07:49:28 51°8.967 2°33.542 14.835401 4.018333 32.51177 10.781076
2004-05-28 07:49:34 51°8.965 2°33.536 14.834093 4.018544 32.512412 10.814785
2004-05-28 07:49:36 51°8.964 2°33.534 14.835445 4.018544 32.511782 10.814785
2004-05-28 07:49:48 51°8.96 2°33.521 14.832479 4.018333 32.508619 10.814785
2004-05-28 07:49:53 51°8.958 2°33.516 14.832479 4.018333 32.508619 10.814785
2004-05-28 07:49:58 51°8.957 2°33.511 14.833308 4.018966 32.514957 10.814785
2004-05-28 07:50:02 51°8.955 2°33.506 14.835009 4.019071 32.515278 10.848494
2004-05-28 07:50:08 51°8.954 2°33.5 14.835271 4.018755 32.512424 10.814785
2004-05-28 07:50:14 51°8.952 2°33.493 14.83514 4.019176 32.516859 10.814785
2004-05-28 07:50:18 51°8.95 2°33.489 14.834791 4.019176 32.518119 10.814785
2004-05-28 07:50:23 51°8.949 2°33.483 14.834791 4.019176 32.518119 10.814785
2004-05-28 07:50:28 51°8.947 2°33.478 14.832436 4.019598 32.521294 10.848494
2004-05-28 07:50:33 51°8.945 2°33.473 14.831607 4.019071 32.515278 10.848494
2004-05-28 07:50:39 51°8.943 2°33.466 14.832872 4.019282 32.51781 10.848494
2004-05-28 07:50:43 51°8.942 2°33.462 14.834049 4.019176 32.515599 10.848494
2004-05-28 07:50:48 51°8.941 2°33.457 14.83418 4.019282 32.51718 10.848494
2004-05-28 07:50:53 51°8.939 2°33.451 14.83418 4.019282 32.51718 10.848494
2004-05-28 07:50:58 51°8.937 2°33.446 14.835968 4.019176 32.518119 10.882204
2004-05-28 07:51:03 51°8.936 2°33.44 14.838062 4.019176 32.518119 10.848494
2004-05-28 07:51:08 51°8.934 2°33.435 14.838149 4.019387 32.519392 10.882204
2004-05-28 07:51:13 51°8.933 2°33.429 14.838149 4.019282 32.51844 10.915913
2004-05-28 07:51:19 51°8.931 2°33.422 14.840067 4.019071 32.514647 10.882204
2004-05-28 07:51:24 51°8.929 2°33.417 14.840067 4.019071 32.514647 10.882204
2004-05-28 07:51:26 51°8.929 2°33.414 14.840198 4.019387 32.516871 10.882204
2004-05-28 07:51:32 51°8.927 2°33.407 14.839719 4.019282 32.514659 10.882204
2004-05-28 07:51:38 51°8.925 2°33.401 14.84046 4.019704 32.517204 10.882204
2004-05-28 07:51:43 51°8.924 2°33.395 14.839413 4.019176 32.513708 10.882204
2004-05-28 07:51:48 51°8.922 2°33.39 14.837974 4.019176 32.512448 10.848494
2004-05-28 07:51:52 51°8.921 2°33.386 14.837974 4.019176 32.512448 10.848494
2004-05-28 07:51:58 51°8.919 2°33.379 14.837059 4.019071 32.511497 10.882204
2004-05-28 07:52:02 51°8.918 2°33.375 14.837582 4.019387 32.51372 10.882204
2004-05-28 07:52:06 51°8.917 2°33.37 14.839108 4.019282 32.512769 10.848494
2004-05-28 07:52:13 51°8.915 2°33.363 14.837015 4.019704 32.517204 10.882204
2004-05-28 07:52:18 51°8.913 2°33.357 14.834486 4.019704 32.517834 10.882204
2004-05-28 07:52:23 51°8.912 2°33.351 14.834486 4.019704 32.517834 10.882204
2004-05-28 07:52:27 51°8.91 2°33.347 14.83514 4.019493 32.515932 10.882204
2004-05-28 07:52:34 51°8.908 2°33.339 14.834529 4.019598 32.516253 10.882204
2004-05-28 07:52:38 51°8.907 2°33.334 14.834049 4.019387 32.515611 10.848494
2004-05-28 07:52:43 51°8.906 2°33.329 14.832174 4.019493 32.516562 10.882204
2004-05-28 07:52:46 51°8.904 2°33.325 14.833134 4.019493 32.517192 10.848494
2004-05-28 07:52:54 51°8.902 2°33.316 14.833134 4.019493 32.517192 10.848494
2004-05-28 07:52:56 51°8.901 2°33.314 14.833221 4.019387 32.517501 10.882204
2004-05-28 07:53:03 51°8.899 2°33.306 14.833831 4.019809 32.521306 10.882204
2004-05-28 07:53:08 51°8.897 2°33.3 14.834442 4.02002 32.523838 10.848494
2004-05-28 07:53:10 51°8.897 2°33.299 14.834791 4.019809 32.522566 10.949623
2004-05-28 07:53:19 51°8.894 2°33.288 14.837495 4.019598 32.520664 10.882204
2004-05-28 07:53:24 51°8.892 2°33.283 14.837495 4.019598 32.520664 10.882204
2004-05-28 07:53:27 51°8.892 2°33.28 14.838236 4.019598 32.520664 10.882204
2004-05-28 07:53:33 51°8.89 2°33.273 14.836622 4.019598 32.520033 10.882204
2004-05-28 07:53:39 51°8.888 2°33.266 14.838018 4.019598 32.519403 10.882204
2004-05-28 07:53:44 51°8.886 2°33.261 14.839937 4.019282 32.51655 10.882204
2004-05-28 07:53:47 51°8.885 2°33.257 14.839152 4.019493 32.515932 10.848494
2004-05-28 07:53:53 51°8.883 2°33.25 14.839152 4.019493 32.515932 10.848494
2004-05-28 07:53:59 51°8.882 2°33.243 14.844646 4.019493 32.515932 10.882204
2004-05-28 07:54:02 51°8.88 2°33.24 14.84469 4.019071 32.512127 10.882204
2004-05-28 07:54:08 51°8.879 2°33.233 14.846172 4.019704 32.517204 10.882204
2004-05-28 07:54:14 51°8.877 2°33.227 14.843905 4.019387 32.51435 10.882204
2004-05-28 07:54:16 51°8.876 2°33.224 14.848221 4.019282 32.511509 10.848494
2004-05-28 07:54:27 51°8.872 2°33.211 14.845954 4.019282 32.51025 10.848494
2004-05-28 07:54:32 51°8.87 2°33.205 14.846129 4.019387 32.511201 10.848494
2004-05-28 07:54:38 51°8.868 2°33.198 14.844951 4.01886 32.504557 10.781076
2004-05-28 07:54:43 51°8.867 2°33.192 14.845518 4.018965 32.504878 10.848494
2004-05-28 07:54:48 51°8.865 2°33.187 14.846477 4.019493 32.510262 10.814785
2004-05-28 07:54:54 51°8.863 2°33.181 14.846477 4.019493 32.510262 10.814785
2004-05-28 07:54:58 51°8.862 2°33.176 14.844341 4.019493 32.510262 10.814785
2004-05-28 07:55:03 51°8.86 2°33.17 14.843861 4.019176 32.508039 10.814785
2004-05-28 07:55:08 51°8.859 2°33.164 14.842945 4.019387 32.508681 10.814785
2004-05-28 07:55:13 51°8.857 2°33.158 14.843512 4.019387 32.509311 10.814785
2004-05-28 07:55:19 51°8.855 2°33.152 14.841463 4.019387 32.508052 10.814785
2004-05-28 07:55:23 51°8.854 2°33.147 14.841463 4.019387 32.508052 10.814785
2004-05-28 07:55:27 51°8.853 2°33.142 14.840198 4.019598 32.510583 10.814785
2004-05-28 07:55:33 51°8.851 2°33.135 14.838323 4.019809 32.513115 10.848494
2004-05-28 07:55:38 51°8.849 2°33.13 14.838018 4.020441 32.520081 10.848494
2004-05-28 07:55:43 51°8.848 2°33.124 14.836404 4.020125 32.517228 10.848494
2004-05-28 07:55:46 51°8.847 2°33.121 14.836317 4.020758 32.524194 10.848494
2004-05-28 07:55:54 51°8.844 2°33.112 14.836317 4.020758 32.524194 10.848494
2004-05-28 07:55:55 51°8.844 2°33.11 14.836753 4.020441 32.521341 10.882204
2004-05-28 07:56:03 51°8.841 2°33.101 14.838018 4.020652 32.525133 10.882204
2004-05-28 07:56:08 51°8.84 2°33.095 14.838672 4.020652 32.525133 10.915913
2004-05-28 07:56:13 51°8.838 2°33.089 14.840285 4.020758 32.527345 10.882204
2004-05-28 07:56:19 51°8.837 2°33.083 14.842073 4.020758 32.527345 10.848494
2004-05-28 07:56:24 51°8.835 2°33.077 14.842073 4.020758 32.527345 10.848494
2004-05-28 07:56:28 51°8.834 2°33.072 14.841027 4.020758 32.527975 10.848494
2004-05-28 07:56:34 51°8.832 2°33.065 14.841332 4.020758 32.526715 10.882204
2004-05-28 07:56:39 51°8.831 2°33.059 14.839937 4.020758 32.526084 10.848494
2004-05-28 07:56:42 51°8.83 2°33.055 14.84155 4.020441 32.521971 10.814785
2004-05-28 07:56:48 51°8.828 2°33.048 14.842727 4.021074 32.528308 10.882204
2004-05-28 07:56:54 51°8.826 2°33.041 14.842727 4.021074 32.528308 10.882204
2004-05-28 07:56:56 51°8.825 2°33.039 14.841332 4.020969 32.526726 10.882204
2004-05-28 07:57:08 51°8.822 2°33.024 14.842945 4.021074 32.527047 10.848494
2004-05-28 07:57:13 51°8.82 2°33.018 14.841724 4.021074 32.527047 10.848494
2004-05-28 07:57:18 51°8.819 2°33.012 14.841332 4.020652 32.522613 10.848494
2004-05-28 07:57:22 51°8.817 2°33.007 14.841332 4.020652 32.522613 10.848494
2004-05-28 07:57:28 51°8.816 2°33 14.845518 4.021179 32.527368 10.882204
2004-05-28 07:57:33 51°8.814 2°32.994 14.844995 4.021285 32.528319 10.882204
2004-05-28 07:57:39 51°8.813 2°32.987 14.8453 4.02139 32.52864 10.882204
2004-05-28 07:57:43 51°8.812 2°32.982 14.846695 4.020969 32.526096 10.915913
2004-05-28 07:57:48 51°8.811 2°32.976 14.847219 4.021074 32.526417 10.882204
2004-05-28 07:57:53 51°8.81 2°32.97 14.847219 4.021074 32.526417 10.882204
2004-05-28 07:57:59 51°8.809 2°32.962 14.848396 4.021074 32.525156 10.882204
2004-05-28 07:58:03 51°8.809 2°32.956 14.848832 4.021179 32.524847 10.915913
2004-05-28 07:58:08 51°8.809 2°32.949 14.847219 4.021179 32.524847 10.882204
2004-05-28 07:58:14 51°8.81 2°32.941 14.844254 4.020863 32.521364 10.882204
2004-05-28 07:58:18 51°8.81 2°32.936 14.843294 4.021179 32.522327 10.882204
2004-05-28 07:58:22 51°8.811 2°32.93 14.843294 4.021179 32.522327 10.882204
2004-05-28 07:58:28 51°8.813 2°32.922 14.835445 4.020968 32.519795 10.848494
2004-05-28 07:58:34 51°8.814 2°32.914 14.836753 4.020758 32.518523 10.848494
2004-05-28 07:58:37 51°8.815 2°32.91 14.830735 4.021179 32.523587 10.882204
2004-05-28 07:58:42 51°8.817 2°32.903 14.832567 4.021917 32.530244 10.882204
2004-05-28 07:58:49 51°8.82 2°32.894 14.832131 4.022234 32.536879 10.949623
2004-05-28 07:58:52 51°8.822 2°32.891 14.832131 4.022234 32.536879 10.949623
2004-05-28 07:58:59 51°8.826 2°32.882 14.834093 4.02255 32.543515 10.949623
2004-05-28 07:59:04 51°8.829 2°32.876 14.834922 4.022761 32.54731 10.949623
2004-05-28 07:59:08 51°8.831 2°32.872 14.828903 4.022972 32.551105 10.983332
2004-05-28 07:59:12 51°8.834 2°32.868 14.819569 4.023183 32.553007 10.983332
2004-05-28 07:59:18 51°8.838 2°32.862 14.805086 4.023288 32.553959 10.983332
2004-05-28 07:59:22 51°8.841 2°32.858 14.805086 4.023288 32.553959 10.983332
2004-05-28 07:59:26 51°8.844 2°32.855 14.791167 4.02371 32.557133 10.949623
2004-05-28 07:59:34 51°8.85 2°32.849 14.780038 4.023815 32.559346 10.949623
2004-05-28 07:59:39 51°8.854 2°32.846 14.763625 4.025713 32.578367 10.949623
2004-05-28 07:59:44 51°8.858 2°32.843 14.746204 4.026662 32.594512 11.050751
2004-05-28 07:59:49 51°8.861 2°32.84 14.737077 4.028244 32.618908 11.08446
2004-05-28 07:59:53 51°8.864 2°32.838 14.737077 4.028244 32.618908 11.08446
2004-05-28 07:59:58 51°8.868 2°32.836 14.725503 4.029403 32.639511 11.11817
2004-05-28 08:00:04 51°8.872 2°32.834 14.715674 4.03109 32.664892 11.219298
2004-05-28 08:00:08 51°8.875 2°32.832 14.70864 4.032883 32.695688 11.286717
2004-05-28 08:00:13 51°8.878 2°32.83 14.708509 4.034043 32.716342 11.387845
2004-05-28 08:00:19 51°8.883 2°32.828 14.697279 4.034886 32.732238 11.488973
2004-05-28 08:00:24 51°8.886 2°32.826 14.697279 4.034886 32.732238 11.488973
2004-05-28 08:00:26 51°8.887 2°32.826 14.700469 4.035941 32.750689 11.623811
2004-05-28 08:00:34 51°8.893 2°32.823 14.690025 4.036363 32.762149 11.623811
2004-05-28 08:00:39 51°8.896 2°32.822 14.688845 4.036784 32.771702 11.724939
2004-05-28 08:00:44 51°8.899 2°32.821 14.686572 4.037312 32.782214 11.758648
2004-05-28 08:00:48 51°8.902 2°32.82 14.682639 4.037733 32.791775 11.792358
2004-05-28 08:00:53 51°8.905 2°32.819 14.682639 4.037733 32.791775 11.792358
2004-05-28 08:00:58 51°8.908 2°32.818 14.672235 4.037839 32.795282 11.859777
2004-05-28 08:01:04 51°8.912 2°32.818 14.674115 4.038366 32.80325 11.927195
2004-05-28 08:01:08 51°8.915 2°32.817 14.668039 4.038366 32.805804 11.893486
2004-05-28 08:01:14 51°8.919 2°32.816 14.660169 4.038261 32.806764 11.927195
2004-05-28 08:01:19 51°8.922 2°32.816 14.650593 4.038999 32.816007 11.994614
2004-05-28 08:01:23 51°8.924 2°32.815 14.650593 4.038999 32.816007 11.994614
2004-05-28 08:01:28 51°8.927 2°32.814 14.646526 4.038999 32.821757 11.960905
2004-05-28 08:01:34 51°8.931 2°32.814 14.644033 4.03921 32.828143 12.028324
2004-05-28 08:01:38 51°8.933 2°32.813 14.641715 4.038999 32.830706 12.062033
2004-05-28 08:01:44 51°8.936 2°32.812 14.635723 4.03921 32.839654 12.095742
2004-05-28 08:01:48 51°8.939 2°32.812 14.635286 4.039316 32.844449 12.163161
2004-05-28 08:01:54 51°8.942 2°32.811 14.635286 4.039316 32.844449 12.163161
2004-05-28 08:01:58 51°8.944 2°32.81 14.634061 4.039316 32.848289 12.23058
2004-05-28 08:02:04 51°8.947 2°32.809 14.631 4.038999 32.84862 12.23058
2004-05-28 08:02:08 51°8.949 2°32.808 14.629119 4.038999 32.851822 12.264289
2004-05-28 08:02:14 51°8.952 2°32.808 14.62575 4.038789 32.85311 12.331708
2004-05-28 08:02:18 51°8.955 2°32.807 14.624613 4.038789 32.855031 12.297999
2004-05-28 08:02:23 51°8.957 2°32.806 14.624613 4.038789 32.855031 12.297999
2004-05-28 08:02:28 51°8.96 2°32.806 14.615994 4.038999 32.856945 12.331708
2004-05-28 08:02:34 51°8.963 2°32.805 14.612713 4.038578 32.85568 12.297999
2004-05-28 08:02:38 51°8.965 2°32.805 14.602255 4.038894 32.859191 12.365418
2004-05-28 08:02:44 51°8.968 2°32.804 14.590351 4.038578 32.859524 12.365418
2004-05-28 08:02:48 51°8.97 2°32.804 14.580021 4.038051 32.858583 12.399127
2004-05-28 08:02:54 51°8.973 2°32.803 14.580021 4.038051 32.858583 12.399127
2004-05-28 08:02:58 51°8.975 2°32.803 14.569952 4.037418 32.857327 12.399127
2004-05-28 08:03:02 51°8.977 2°32.803 14.570959 4.036364 32.854163 12.432836
2004-05-28 08:03:08 51°8.98 2°32.802 14.559356 4.035521 32.851633 12.432836
2004-05-28 08:03:14 51°8.982 2°32.802 14.549854 4.033623 32.842731 12.399127
2004-05-28 08:03:19 51°8.985 2°32.802 14.544292 4.031831 32.836707 12.466546
2004-05-28 08:03:24 51°8.987 2°32.802 14.544292 4.031831 32.836707 12.466546
2004-05-28 08:03:28 51°8.989 2°32.802 14.536495 4.030777 32.832258 12.500255
2004-05-28 08:03:34 51°8.993 2°32.802 14.534568 4.030144 32.830998 12.466546
2004-05-28 08:03:38 51°8.995 2°32.802 14.53137 4.028141 32.819207 12.500255
2004-05-28 08:03:43 51°8.998 2°32.802 14.526069 4.026771 32.815085 12.500255
2004-05-28 08:03:48 51°9.002 2°32.803 14.523966 4.025927 32.81319 12.500255
2004-05-28 08:03:54 51°9.006 2°32.805 14.523966 4.025927 32.81319 12.500255
2004-05-28 08:03:58 51°9.009 2°32.806 14.519541 4.024662 32.804894 12.500255
2004-05-28 08:04:04 51°9.014 2°32.809 14.509639 4.024135 32.804591 12.500255
2004-05-28 08:04:08 51°9.017 2°32.812 14.506703 4.023503 32.802687 12.466546
2004-05-28 08:04:13 51°9.021 2°32.815 14.505388 4.022554 32.795341 12.500255
2004-05-28 08:04:19 51°9.025 2°32.82 14.503109 4.021711 32.791519 12.500255
2004-05-28 08:04:24 51°9.029 2°32.825 14.503109 4.021711 32.791519 12.500255
2004-05-28 08:04:28 51°9.031 2°32.829 14.494957 4.021078 32.790255 12.466546
2004-05-28 08:04:34 51°9.035 2°32.836 14.48733 4.019813 32.782596 12.466546
2004-05-28 08:04:38 51°9.037 2°32.841 14.486015 4.018443 32.773976 12.466546
2004-05-28 08:04:43 51°9.04 2°32.847 14.486015 4.017599 32.767587 12.500255
2004-05-28 08:04:48 51°9.043 2°32.854 14.479527 4.016334 32.760565 12.500255
2004-05-28 08:04:54 51°9.046 2°32.862 14.479527 4.016334 32.760565 12.500255
2004-05-28 08:04:58 51°9.049 2°32.868 14.476546 4.015069 32.754825 12.466546
2004-05-28 08:05:02 51°9.051 2°32.874 14.477993 4.013909 32.749402 12.466546
2004-05-28 08:05:07 51°9.054 2°32.881 14.469531 4.013172 32.744609 12.466546
2004-05-28 08:05:13 51°9.057 2°32.89 14.470189 4.012012 32.737902 12.432836
2004-05-28 08:05:18 51°9.06 2°32.897 14.47146 4.011696 32.736947 12.399127
2004-05-28 08:05:22 51°9.062 2°32.902 14.47146 4.011696 32.736947 12.399127
2004-05-28 08:05:28 51°9.065 2°32.911 14.470189 4.010852 32.731194 12.399127
2004-05-28 08:05:34 51°9.068 2°32.919 14.468216 4.010114 32.727041 12.432836
2004-05-28 08:05:38 51°9.07 2°32.925 14.464839 4.009903 32.727045 12.399127
2004-05-28 08:05:44 51°9.073 2°32.933 14.464094 4.009798 32.728008 12.399127
2004-05-28 08:05:48 51°9.075 2°32.939 14.461682 4.009693 32.727689 12.365418
2004-05-28 08:05:54 51°9.078 2°32.947 14.461682 4.009693 32.727689 12.365418
2004-05-28 08:05:59 51°9.08 2°32.955 14.462866 4.009482 32.72577 12.399127
2004-05-28 08:06:03 51°9.082 2°32.961 14.461024 4.009166 32.725455 12.432836
2004-05-28 08:06:07 51°9.083 2°32.966 14.456814 4.008849 32.723858 12.432836
2004-05-28 08:06:14 51°9.086 2°32.977 14.457297 4.008217 32.719382 12.466546
2004-05-28 08:06:18 51°9.087 2°32.983 14.454578 4.008111 32.719704 12.466546
2004-05-28 08:06:24 51°9.089 2°32.991 14.454578 4.008111 32.719704 12.466546
2004-05-28 08:06:28 51°9.09 2°32.998 14.453964 4.007795 32.718748 12.500255
2004-05-28 08:06:33 51°9.092 2°33.005 14.453832 4.007479 32.71715 12.533965
2004-05-28 08:06:39 51°9.094 2°33.014 14.455586 4.007479 32.719073 12.533965
2004-05-28 08:06:43 51°9.094 2°33.02 14.452999 4.007374 32.720037 12.533965
2004-05-28 08:06:48 51°9.096 2°33.028 14.452209 4.007163 32.718758 12.533965
2004-05-28 08:06:54 51°9.097 2°33.037 14.452209 4.007163 32.718758 12.533965
2004-05-28 08:06:58 51°9.098 2°33.043 14.447736 4.006846 32.716519 12.601383
2004-05-28 08:07:02 51°9.098 2°33.049 14.449052 4.006425 32.713321 12.601383
2004-05-28 08:07:08 51°9.099 2°33.058 14.451245 4.006636 32.715882 12.567674
2004-05-28 08:07:14 51°9.1 2°33.068 14.451376 4.006425 32.714603 12.567674
2004-05-28 08:07:18 51°9.1 2°33.074 14.447517 4.006319 32.713643 12.533965
2004-05-28 08:07:22 51°9.1 2°33.08 14.447517 4.006319 32.713643 12.533965
2004-05-28 08:07:28 51°9.101 2°33.089 14.448394 4.005687 32.709806 12.567674
2004-05-28 08:07:34 51°9.101 2°33.098 14.447999 4.005476 32.708527 12.533965
2004-05-28 08:07:38 51°9.101 2°33.104 14.446113 4.005898 32.711726 12.533965
2004-05-28 08:07:43 51°9.101 2°33.112 14.448876 4.005792 32.710125 12.500255
2004-05-28 08:07:46 51°9.101 2°33.117 14.447122 4.005581 32.708846 12.533965
2004-05-28 08:07:54 51°9.101 2°33.129 14.447122 4.005581 32.708846 12.533965
2004-05-28 08:07:59 51°9.101 2°33.136 14.446376 4.005898 32.711726 12.533965
2004-05-28 08:08:04 51°9.101 2°33.144 14.446245 4.005371 32.708208 12.500255
2004-05-28 08:08:08 51°9.1 2°33.15 14.445894 4.005476 32.709809 12.533965
2004-05-28 08:08:14 51°9.1 2°33.159 14.445894 4.005476 32.708527 12.533965
2004-05-28 08:08:18 51°9.1 2°33.165 14.442297 4.005371 32.70949 12.500255
2004-05-28 08:08:24 51°9.099 2°33.175 14.442297 4.005371 32.70949 12.500255
2004-05-28 08:08:28 51°9.099 2°33.181 14.44449 4.004949 32.706291 12.500255
2004-05-28 08:08:34 51°9.099 2°33.19 14.442297 4.004949 32.706291 12.533965
2004-05-28 08:08:39 51°9.098 2°33.198 14.443393 4.00516 32.70757 12.567674
2004-05-28 08:08:44 51°9.098 2°33.206 14.43927 4.004949 32.706932 12.533965
2004-05-28 08:08:48 51°9.098 2°33.212 14.440235 4.004843 32.706613 12.601383
2004-05-28 08:08:54 51°9.097 2°33.221 14.440235 4.004843 32.706613 12.601383
2004-05-28 08:08:58 51°9.097 2°33.227 14.440586 4.004738 32.706935 12.567674
2004-05-28 08:09:04 51°9.096 2°33.237 14.437077 4.004527 32.705656 12.567674
2004-05-28 08:09:08 51°9.096 2°33.243 14.441244 4.004527 32.705015 12.567674
2004-05-28 08:09:14 51°9.095 2°33.252 14.440455 4.004316 32.705018 12.635093
2004-05-28 08:09:18 51°9.095 2°33.258 14.43949 4.004211 32.704699 12.601383
2004-05-28 08:09:23 51°9.095 2°33.266 14.43949 4.004211 32.704699 12.601383
2004-05-28 08:09:27 51°9.094 2°33.272 14.439577 4.004106 32.705021 12.635093
2004-05-28 08:09:34 51°9.094 2°33.283 14.43949 4.004211 32.70534 12.635093
2004-05-28 08:09:39 51°9.094 2°33.291 14.441113 4.004106 32.703738 12.601383
2004-05-28 08:09:44 51°9.093 2°33.299 14.440235 4.004106 32.70438 12.635093
2004-05-28 08:09:48 51°9.093 2°33.305 14.4412 4.004422 32.709184 12.567674
2004-05-28 08:09:50 51°9.093 2°33.308 14.4412 4.004422 32.709184 12.567674
2004-05-28 08:09:58 51°9.093 2°33.321 14.441113 4.004 32.703419 12.601383
2004-05-28 08:10:03 51°9.093 2°33.329 14.4412 4.004422 32.706619 12.567674
2004-05-28 08:10:08 51°9.093 2°33.337 14.442999 4.004106 32.70438 12.567674
2004-05-28 08:10:14 51°9.093 2°33.346 14.442648 4.004211 32.70534 12.533965
2004-05-28 08:10:18 51°9.092 2°33.352 14.440805 4.004738 32.708859 12.533965
2004-05-28 08:10:24 51°9.092 2°33.362 14.440805 4.004738 32.708859 12.533965
2004-05-28 08:10:28 51°9.092 2°33.368 14.441946 4.004106 32.703738 12.533965
2004-05-28 08:10:32 51°9.092 2°33.375 14.439621 4.004527 32.708221 12.500255
2004-05-28 08:10:38 51°9.092 2°33.384 14.439972 4.004844 32.711102 12.500255
2004-05-28 08:10:43 51°9.092 2°33.392 14.439797 4.004527 32.707579 12.466546
2004-05-28 08:10:48 51°9.092 2°33.4 14.440235 4.004527 32.707579 12.432836
2004-05-28 08:10:54 51°9.091 2°33.41 14.440235 4.004527 32.707579 12.432836
2004-05-28 08:10:59 51°9.091 2°33.418 14.44142 4.004633 32.70854 12.466546
2004-05-28 08:11:03 51°9.092 2°33.424 14.441771 4.004738 32.710141 12.432836
2004-05-28 08:11:06 51°9.092 2°33.429 14.439797 4.004527 32.708862 12.466546
2004-05-28 08:11:13 51°9.092 2°33.44 14.4412 4.004844 32.711743 12.432836
2004-05-28 08:11:18 51°9.092 2°33.448 14.44335 4.005265 32.714301 12.432836
2004-05-28 08:11:24 51°9.093 2°33.458 14.44335 4.005265 32.714301 12.432836
2004-05-28 08:11:28 51°9.093 2°33.464 14.441463 4.00516 32.713341 12.365418
2004-05-28 08:11:34 51°9.094 2°33.474 14.440893 4.005265 32.714301 12.365418
2004-05-28 08:11:39 51°9.095 2°33.482 14.445938 4.00516 32.713982 12.365418
2004-05-28 08:11:42 51°9.095 2°33.487 14.451245 4.005371 32.713979 12.365418
2004-05-28 08:11:48 51°9.096 2°33.497 14.471548 4.005581 32.715899 12.399127
2004-05-28 08:11:54 51°9.097 2°33.506 14.471548 4.005581 32.715899 12.399127
2004-05-28 08:11:59 51°9.098 2°33.515 14.489654 4.005476 32.715581 12.331708
2004-05-28 08:12:04 51°9.098 2°33.523 14.505914 4.005476 32.715581 12.331708
2004-05-28 08:12:08 51°9.099 2°33.53 14.517351 4.005687 32.714936 12.331708
2004-05-28 08:12:14 51°9.1 2°33.54 14.530275 4.006003 32.710763 12.264289
2004-05-28 08:12:18 51°9.101 2°33.546 14.541839 4.006846 32.704983 12.196871
2004-05-28 08:12:23 51°9.101 2°33.555 14.541839 4.006846 32.704983 12.196871
2004-05-28 08:12:28 51°9.102 2°33.563 14.554058 4.007584 32.700171 12.163161
2004-05-28 08:12:34 51°9.103 2°33.573 14.568376 4.008322 32.695363 12.095742
2004-05-28 08:12:39 51°9.103 2°33.581 14.5872 4.00927 32.692476 12.129452
2004-05-28 08:12:44 51°9.104 2°33.59 14.607681 4.010219 32.691511 12.062033
2004-05-28 08:12:47 51°9.105 2°33.594 14.625969 4.011062 32.688949 12.028324
2004-05-28 08:12:53 51°9.105 2°33.605 14.625969 4.011062 32.688949 12.028324
2004-05-28 08:12:58 51°9.106 2°33.613 14.636861 4.012011 32.687348 11.994614
2004-05-28 08:13:02 51°9.106 2°33.62 14.649325 4.012643 32.678407 11.893486
2004-05-28 08:13:08 51°9.107 2°33.63 14.667514 4.01317 32.670431 11.859777
2004-05-28 08:13:14 51°9.107 2°33.64 14.68089 4.013803 32.66087 11.792358
2004-05-28 08:13:17 51°9.108 2°33.645 14.695444 4.01433 32.65482 11.69123
2004-05-28 08:13:22 51°9.108 2°33.653 14.695444 4.01433 32.65482 11.69123
2004-05-28 08:13:28 51°9.108 2°33.663 14.706761 4.014646 32.646227 11.590101
2004-05-28 08:13:33 51°9.109 2°33.671 14.717334 4.015173 32.63828 11.590101
2004-05-28 08:13:38 51°9.109 2°33.68 14.727949 4.015594 32.63002 11.522683
2004-05-28 08:13:44 51°9.11 2°33.69 14.736335 4.016332 32.623997 11.421554
2004-05-28 08:13:48 51°9.11 2°33.697 14.746117 4.016964 32.617025 11.354136
2004-05-28 08:13:54 51°9.111 2°33.707 14.746117 4.016964 32.617025 11.354136
2004-05-28 08:13:56 51°9.111 2°33.71 14.754937 4.016859 32.605916 11.320426
2004-05-28 08:14:03 51°9.111 2°33.722 14.763407 4.017491 32.602762 11.286717
2004-05-28 08:14:07 51°9.111 2°33.729 14.771134 4.017807 32.597382 11.253007
2004-05-28 08:14:14 51°9.112 2°33.741 14.777463 4.01844 32.594866 11.219298
2004-05-28 08:14:18 51°9.112 2°33.747 14.785057 4.01844 32.587264 11.219298
2004-05-28 08:14:24 51°9.113 2°33.758 14.785057 4.01844 32.587264 11.219298
2004-05-28 08:14:28 51°9.113 2°33.764 14.791036 4.01865 32.581573 11.219298
2004-05-28 08:14:32 51°9.113 2°33.771 14.797538 4.01865 32.575244 11.151879
2004-05-28 08:14:38 51°9.114 2°33.781 14.804344 4.018334 32.566692 11.11817
2004-05-28 08:14:43 51°9.114 2°33.79 14.809449 4.018861 32.565132 11.151879
2004-05-28 08:14:48 51°9.115 2°33.798 14.817126 4.018966 32.560395 11.08446
2004-05-28 08:14:52 51°9.115 2°33.805 14.817126 4.018966 32.560395 11.08446
2004-05-28 08:14:58 51°9.116 2°33.815 14.821881 4.019282 32.557565 11.08446
2004-05-28 08:15:04 51°9.116 2°33.825 14.829994 4.019493 32.554416 11.08446
2004-05-28 08:15:08 51°9.117 2°33.832 14.838018 4.019282 32.546827 11.050751
2004-05-28 08:15:14 51°9.117 2°33.842 14.839588 4.019282 32.541777 10.983332
2004-05-28 08:15:18 51°9.117 2°33.849 14.842291 4.019282 32.536728 10.983332
2004-05-28 08:15:23 51°9.118 2°33.858 14.842291 4.019282 32.536728 10.983332
2004-05-28 08:15:28 51°9.118 2°33.866 14.849878 4.019388 32.532632 10.949623
2004-05-28 08:15:40 51°9.119 2°33.886 14.859077 4.019493 32.523494 10.983332
2004-05-28 08:15:44 51°9.12 2°33.893 14.857551 4.019598 32.519403 10.915913
2004-05-28 08:15:51 51°9.12 2°33.905 14.862739 4.019493 32.514671 10.915913
2004-05-28 08:15:55 51°9.121 2°33.912 14.865616 4.019598 32.510583 10.882204
2004-05-28 08:16:00 51°9.121 2°33.92 14.867011 4.019493 32.507113 10.848494
2004-05-28 08:16:06 51°9.122 2°33.93 14.867011 4.019493 32.507113 10.848494
2004-05-28 08:16:10 51°9.122 2°33.937 14.872982 4.019176 32.501742 10.814785
2004-05-28 08:16:15 51°9.123 2°33.945 14.871588 4.019387 32.501755 10.848494
2004-05-28 08:16:20 51°9.123 2°33.954 14.87198 4.019282 32.497657 10.814785
2004-05-28 08:16:24 51°9.124 2°33.961 14.877777 4.019598 32.497363 10.814785
2004-05-28 08:16:31 51°9.124 2°33.972 14.878169 4.019492 32.493895 10.814785
2004-05-28 08:16:34 51°9.125 2°33.977 14.878169 4.019492 32.493895 10.814785
2004-05-28 08:16:40 51°9.125 2°33.987 14.881176 4.019703 32.494538 10.814785
2004-05-28 08:16:46 51°9.126 2°33.998 14.886231 4.019492 32.490121 10.814785
2004-05-28 08:16:50 51°9.126 2°34.004 14.885142 4.019492 32.488234 10.781076
2004-05-28 08:16:55 51°9.126 2°34.013 14.892855 4.019492 32.486347 10.747366
2004-05-28 08:16:58 51°9.127 2°34.018 14.891329 4.019176 32.482239 10.747366
2004-05-28 08:17:04 51°9.127 2°34.028 14.891329 4.019176 32.482239 10.747366
2004-05-28 08:17:11 51°9.128 2°34.039 14.894292 4.019281 32.481932 10.747366
2004-05-28 08:17:15 51°9.129 2°34.046 14.894772 4.019281 32.479418 10.713657
2004-05-28 08:17:20 51°9.129 2°34.055 14.89817 4.019598 32.479753 10.713657
2004-05-28 08:17:25 51°9.13 2°34.063 14.9 4.019281 32.473761 10.747366
2004-05-28 08:17:30 51°9.13 2°34.071 14.900087 4.019597 32.475354 10.713657
2004-05-28 08:17:34 51°9.131 2°34.078 14.900087 4.019597 32.475354 10.713657
2004-05-28 08:17:40 51°9.131 2°34.088 14.901394 4.019387 32.47157 10.713657
2004-05-28 08:17:44 51°9.132 2°34.095 14.905097 4.019281 32.468736 10.713657
2004-05-28 08:17:50 51°9.132 2°34.105 14.904487 4.019492 32.470007 10.713657
2004-05-28 08:17:54 51°9.133 2°34.112 14.906796 4.019492 32.467495 10.679947
2004-05-28 08:18:08 51°9.134 2°34.135 14.905533 4.019597 32.465932 10.679947
2004-05-28 08:18:14 51°9.135 2°34.145 14.908408 4.019597 32.464676 10.646238
2004-05-28 08:18:18 51°9.135 2°34.152 14.907276 4.019703 32.463742 10.713657
2004-05-28 08:18:22 51°9.135 2°34.158 14.907276 4.019703 32.463742 10.713657
2004-05-28 08:18:29 51°9.136 2°34.17 14.910543 4.019386 32.46215 10.679947
2004-05-28 08:18:34 51°9.136 2°34.178 14.910543 4.019597 32.462793 10.646238
2004-05-28 08:18:38 51°9.137 2°34.185 14.907493 4.019597 32.462793 10.679947
2004-05-28 08:18:43 51°9.137 2°34.193 14.907755 4.019913 32.46313 10.646238
2004-05-28 08:18:48 51°9.138 2°34.201 14.909584 4.019913 32.462502 10.713657
2004-05-28 08:18:53 51°9.138 2°34.209 14.909584 4.019913 32.462502 10.713657
2004-05-28 08:18:58 51°9.138 2°34.218 14.910456 4.020019 32.462824 10.679947
2004-05-28 08:19:04 51°9.139 2°34.228 14.908408 4.019913 32.46313 10.679947
2004-05-28 08:19:08 51°9.139 2°34.234 14.907885 4.019597 32.460282 10.713657
2004-05-28 08:19:14 51°9.14 2°34.244 14.906404 4.019808 32.462181 10.713657
2004-05-28 08:19:18 51°9.14 2°34.251 14.908234 4.02023 32.465351 10.713657
2004-05-28 08:19:22 51°9.14 2°34.257 14.908234 4.02023 32.465351 10.713657
2004-05-28 08:19:28 51°9.141 2°34.267 14.908539 4.02023 32.464723 10.747366
2004-05-28 08:19:34 51°9.141 2°34.277 14.906186 4.02023 32.464723 10.747366
2004-05-28 08:19:37 51°9.142 2°34.282 14.901351 4.020124 32.465657 10.781076
2004-05-28 08:19:42 51°9.142 2°34.29 14.897125 4.019913 32.46313 10.747366
2004-05-28 08:19:48 51°9.142 2°34.3 14.897125 4.020335 32.466928 10.747366
2004-05-28 08:19:54 51°9.143 2°34.31 14.897125 4.020335 32.466928 10.747366
2004-05-28 08:19:59 51°9.143 2°34.318 14.896776 4.020441 32.467877 10.781076
2004-05-28 08:20:03 51°9.144 2°34.324 14.898954 4.02023 32.467862 10.747366
2004-05-28 08:20:08 51°9.144 2°34.333 14.900392 4.020546 32.472594 10.814785
2004-05-28 08:20:14 51°9.145 2°34.342 14.901089 4.020441 32.474785 10.814785
2004-05-28 08:20:18 51°9.145 2°34.349 14.899042 4.020546 32.476363 10.814785
2004-05-28 08:20:22 51°9.145 2°34.356 14.899042 4.020546 32.476363 10.814785
2004-05-28 08:20:33 51°9.147 2°34.373 14.90318 4.02023 32.472886 10.848494
2004-05-28 08:20:38 51°9.147 2°34.382 14.905141 4.020652 32.475428 10.814785
2004-05-28 08:20:42 51°9.147 2°34.388 14.905315 4.020546 32.473851 10.848494
2004-05-28 08:20:47 51°9.148 2°34.396 14.905315 4.020546 32.473851 10.848494
2004-05-28 08:20:52 51°9.149 2°34.404 14.905838 4.020546 32.473851 10.882204
2004-05-28 08:20:58 51°9.149 2°34.414 14.906317 4.020441 32.472273 10.848494
2004-05-28 08:21:03 51°9.15 2°34.422 14.911196 4.02023 32.469746 10.848494
2004-05-28 08:21:07 51°9.15 2°34.429 14.915465 4.020441 32.471017 10.848494
2004-05-28 08:21:13 51°9.15 2°34.439 14.917861 4.020546 32.470083 10.848494
2004-05-28 08:21:18 51°9.151 2°34.447 14.917861 4.020546 32.470083 10.848494
2004-05-28 08:21:22 51°9.151 2°34.453 14.918993 4.019913 32.464386 10.814785
2004-05-28 08:21:27 51°9.152 2°34.461 14.920866 4.020546 32.468199 10.848494
2004-05-28 08:21:33 51°9.152 2°34.471 14.922957 4.02023 32.46284 10.814785
2004-05-28 08:21:38 51°9.153 2°34.479 14.924133 4.019913 32.457481 10.814785
2004-05-28 08:21:43 51°9.153 2°34.487 14.926049 4.019597 32.452124 10.781076
2004-05-28 08:21:48 51°9.154 2°34.495 14.926049 4.019597 32.452124 10.781076
2004-05-28 08:21:52 51°9.154 2°34.501 14.926702 4.019281 32.448649 10.781076
2004-05-28 08:21:57 51°9.155 2°34.508 14.926441 4.008738 32.35188 10.747366
2004-05-28 08:22:02 51°9.155 2°34.515 14.925483 4.018859 32.44109 10.781076
2004-05-28 08:22:06 51°9.156 2°34.521 14.924786 4.018437 32.436667 10.747366
2004-05-28 08:22:11 51°9.156 2°34.527 14.921955 4.018648 32.437311 10.747366
2004-05-28 08:22:18 51°9.157 2°34.537 14.921955 4.018648 32.437311 10.747366
2004-05-28 08:22:23 51°9.158 2°34.544 14.923044 4.018016 32.430364 10.747366
2004-05-28 08:22:27 51°9.158 2°34.549 14.922347 4.017594 32.427195 10.781076
2004-05-28 08:22:30 51°9.159 2°34.554 14.922957 4.017699 32.428771 10.747366
2004-05-28 08:22:36 51°9.159 2°34.562 14.923915 4.017594 32.427822 10.713657
2004-05-28 08:22:43 51°9.16 2°34.572 14.925613 4.01675 32.420857 10.747366
2004-05-28 08:22:46 51°9.161 2°34.577 14.925613 4.01675 32.420857 10.747366
2004-05-28 08:22:52 51°9.161 2°34.587 14.926354 4.016645 32.420535 10.747366
2004-05-28 08:22:58 51°9.162 2°34.598 14.926833 4.016223 32.416739 10.747366
2004-05-28 08:23:02 51°9.162 2°34.605 14.928401 4.016223 32.416113 10.713657
2004-05-28 08:23:06 51°9.163 2°34.612 14.929663 4.015485 32.410097 10.713657
2004-05-28 08:23:12 51°9.163 2°34.623 14.930186 4.014853 32.403778 10.713657
2004-05-28 08:23:14 51°9.164 2°34.627 14.930186 4.014853 32.403778 10.713657
2004-05-28 08:23:23 51°9.165 2°34.644 14.93097 4.014326 32.397155 10.713657
2004-05-28 08:23:27 51°9.166 2°34.652 14.931797 4.014431 32.397478 10.713657
2004-05-28 08:23:32 51°9.166 2°34.662 14.932973 4.013588 32.389262 10.713657
2004-05-28 08:23:37 51°9.167 2°34.671 14.933583 4.013482 32.387062 10.713657
2004-05-28 08:23:43 51°9.168 2°34.683 14.933975 4.01306 32.382642 10.747366
2004-05-28 08:23:48 51°9.169 2°34.693 14.933975 4.01306 32.382642 10.747366
2004-05-28 08:23:52 51°9.17 2°34.701 14.937153 4.01306 32.382642 10.747366
2004-05-28 08:23:56 51°9.17 2°34.709 14.940898 4.012428 32.375073 10.679947
2004-05-28 08:24:03 51°9.172 2°34.723 14.940419 4.011795 32.369382 10.713657
2004-05-28 08:24:06 51°9.172 2°34.728 14.943119 4.011268 32.364015 10.713657
2004-05-28 08:24:12 51°9.173 2°34.74 14.944294 4.010846 32.358971 10.679947
2004-05-28 08:24:16 51°9.174 2°34.749 14.944294 4.010846 32.358971 10.679947
2004-05-28 08:24:23 51°9.175 2°34.763 14.945688 4.01053 32.35425 10.679947
2004-05-28 08:24:28 51°9.176 2°34.773 14.94843 4.010214 32.350155 10.713657
2004-05-28 08:24:32 51°9.176 2°34.781 14.949998 4.009898 32.344811 10.612529
2004-05-28 08:24:38 51°9.177 2°34.793 14.950128 4.009265 32.338497 10.679947
2004-05-28 08:24:43 51°9.178 2°34.803 14.950651 4.008949 32.335028 10.646238
2004-05-28 08:24:47 51°9.178 2°34.811 14.950651 4.008949 32.335028 10.646238
2004-05-28 08:24:52 51°9.179 2°34.821 14.950651 4.008843 32.332206 10.612529
2004-05-28 08:24:57 51°9.18 2°34.831 14.950128 4.008421 32.326541 10.578819
2004-05-28 08:25:03 51°9.18 2°34.843 14.950564 4.008 32.321501 10.646238
2004-05-28 08:25:08 51°9.181 2°34.853 14.948648 4.008105 32.321825 10.612529
2004-05-28 08:25:12 51°9.181 2°34.861 14.94547 4.007683 32.318033 10.646238
2004-05-28 08:25:16 51°9.182 2°34.869 14.94547 4.007683 32.318033 10.646238
2004-05-28 08:25:22 51°9.182 2°34.881 14.945339 4.007051 32.312346 10.612529
2004-05-28 08:25:26 51°9.183 2°34.89 14.943728 4.006945 32.311398 10.679947
2004-05-28 08:25:32 51°9.183 2°34.902 14.943772 4.006735 32.309502 10.679947
2004-05-28 08:25:37 51°9.184 2°34.912 14.940985 4.006629 32.309802 10.679947
2004-05-28 08:25:42 51°9.184 2°34.922 14.938721 4.006629 32.31105 10.679947
2004-05-28 08:25:46 51°9.185 2°34.93 14.938721 4.006629 32.31105 10.679947
2004-05-28 08:25:52 51°9.185 2°34.942 14.937981 4.005786 32.304715 10.679947
2004-05-28 08:25:57 51°9.186 2°34.952 14.936283 4.006313 32.310078 10.713657
2004-05-28 08:26:03 51°9.186 2°34.964 14.936718 4.005997 32.307235 10.713657
2004-05-28 08:26:08 51°9.186 2°34.974 14.936849 4.005575 32.305315 10.781076
2004-05-28 08:26:12 51°9.187 2°34.982 14.935238 4.005575 32.306563 10.713657
2004-05-28 08:26:17 51°9.187 2°34.992 14.935238 4.005575 32.306563 10.713657
2004-05-28 08:26:22 51°9.188 2°35.003 14.938503 4.005259 32.305591 10.747366
2004-05-28 08:26:26 51°9.188 2°35.011 14.939679 4.005364 32.306539 10.713657
2004-05-28 08:26:32 51°9.188 2°35.023 14.939766 4.005153 32.305267 10.713657
2004-05-28 08:26:37 51°9.189 2°35.033 14.942553 4.005048 32.304943 10.747366
2004-05-28 08:26:42 51°9.189 2°35.043 14.942814 4.005153 32.305891 10.747366
2004-05-28 08:26:46 51°9.189 2°35.051 14.942814 4.005153 32.305891 10.747366
2004-05-28 08:26:52 51°9.19 2°35.063 14.944904 4.005364 32.305915 10.713657
2004-05-28 08:26:58 51°9.19 2°35.075 14.945252 4.005364 32.305915 10.713657
2004-05-28 08:27:02 51°9.19 2°35.083 14.946384 4.005048 32.302447 10.747366
2004-05-28 08:27:06 51°9.191 2°35.091 14.947647 4.005153 32.301523 10.713657
2004-05-28 08:27:12 51°9.191 2°35.103 14.946515 4.005364 32.302171 10.713657
2004-05-28 08:27:18 51°9.192 2°35.115 14.946515 4.005364 32.302171 10.713657
2004-05-28 08:27:23 51°9.192 2°35.125 14.946863 4.005259 32.299975 10.713657
2004-05-28 08:27:26 51°9.192 2°35.131 14.947342 4.005364 32.300923 10.747366
2004-05-28 08:27:32 51°9.193 2°35.143 14.947124 4.00568 32.302519 10.747366
2004-05-28 08:27:36 51°9.193 2°35.151 14.948213 4.005575 32.300947 10.747366
2004-05-28 08:27:43 51°9.194 2°35.165 14.946602 4.00547 32.300623 10.747366
2004-05-28 08:27:47 51°9.194 2°35.173 14.946602 4.00547 32.300623 10.747366
2004-05-28 08:27:52 51°9.195 2°35.183 14.949258 4.005997 32.303491 10.747366
2004-05-28 08:27:57 51°9.195 2°35.193 14.949345 4.005786 32.302219 10.747366
2004-05-28 08:28:02 51°9.195 2°35.202 14.952044 4.00568 32.300024 10.747366
2004-05-28 08:28:07 51°9.196 2°35.211 14.953306 4.005364 32.29718 10.679947
2004-05-28 08:28:12 51°9.196 2°35.22 14.9547 4.00547 32.298128 10.713657
2004-05-28 08:28:17 51°9.196 2°35.229 14.9547 4.00547 32.298128 10.713657
2004-05-28 08:28:23 51°9.197 2°35.239 14.954264 4.005153 32.295908 10.781076
2004-05-28 08:28:27 51°9.197 2°35.245 14.952392 4.00568 32.298776 10.747366
2004-05-28 08:28:32 51°9.197 2°35.253 14.951478 4.005259 32.294985 10.781076
2004-05-28 08:28:38 51°9.198 2°35.262 14.953829 4.005469 32.29501 10.781076
2004-05-28 08:28:43 51°9.198 2°35.27 14.950956 4.005259 32.293114 10.747366
2004-05-28 08:28:47 51°9.198 2°35.276 14.950956 4.005259 32.293114 10.747366
2004-05-28 08:28:52 51°9.198 2°35.283 14.952697 4.005364 32.293438 10.814785
2004-05-28 08:28:57 51°9.199 2°35.29 14.952436 4.005259 32.291867 10.781076
2004-05-28 08:29:03 51°9.199 2°35.298 14.953089 4.005575 32.295957 10.814785
2004-05-28 08:29:07 51°9.2 2°35.304 14.957268 4.005364 32.294062 10.814785
2004-05-28 08:29:12 51°9.2 2°35.311 14.954917 4.004942 32.289648 10.848494
2004-05-28 08:29:18 51°9.201 2°35.319 14.954917 4.004942 32.289648 10.848494
2004-05-28 08:29:23 51°9.201 2°35.326 14.953959 4.005048 32.291219 10.814785
2004-05-28 08:29:27 51°9.201 2°35.331 14.955091 4.004942 32.290271 10.848494
2004-05-28 08:29:32 51°9.201 2°35.337 14.953437 4.004731 32.287129 10.882204
2004-05-28 08:29:46 51°9.202 2°35.356 14.963014 4.004837 32.287453 10.915913
2004-05-28 08:29:54 51°9.203 2°35.366 14.963014 4.004837 32.287453 10.915913
2004-05-28 08:29:59 51°9.203 2°35.372 14.960359 4.004521 32.28461 10.882204
2004-05-28 08:30:04 51°9.203 2°35.379 14.961839 4.004415 32.283663 10.915913
2004-05-28 08:30:08 51°9.204 2°35.384 14.963536 4.004204 32.280521 10.949623
2004-05-28 08:30:14 51°9.204 2°35.391 14.963623 4.004415 32.280546 10.882204
2004-05-28 08:30:19 51°9.204 2°35.397 14.963971 4.004204 32.278028 10.949623
2004-05-28 08:30:22 51°9.205 2°35.401 14.963971 4.004204 32.278028 10.949623
2004-05-28 08:30:27 51°9.205 2°35.407 14.965103 4.004099 32.275834 10.882204
2004-05-28 08:30:34 51°9.206 2°35.415 14.964058 4.003888 32.27394 10.882204
2004-05-28 08:30:38 51°9.206 2°35.42 14.963754 4.003677 32.270176 10.915913
2004-05-28 08:30:44 51°9.207 2°35.428 14.963014 4.003572 32.269228 10.915913
2004-05-28 08:30:48 51°9.207 2°35.433 14.96297 4.003572 32.267983 10.882204
2004-05-28 08:30:54 51°9.207 2°35.44 14.96297 4.003572 32.267983 10.882204
2004-05-28 08:30:58 51°9.208 2°35.445 14.962274 4.003466 32.267035 10.882204
2004-05-28 08:31:02 51°9.208 2°35.45 14.962753 4.003255 32.265763 10.915913
2004-05-28 08:31:06 51°9.208 2°35.454 14.962796 4.003045 32.263869 10.882204
2004-05-28 08:31:13 51°9.209 2°35.463 14.960315 4.002939 32.263544 10.915913
2004-05-28 08:31:19 51°9.209 2°35.47 14.961099 4.002834 32.262597 10.915913
2004-05-28 08:31:23 51°9.21 2°35.475 14.961099 4.002834 32.262597 10.915913
2004-05-28 08:31:28 51°9.21 2°35.481 14.959923 4.002517 32.259132 10.915913
2004-05-28 08:31:34 51°9.211 2°35.488 14.959706 4.002623 32.260079 10.915913
2004-05-28 08:31:38 51°9.211 2°35.493 14.959488 4.002201 32.25629 10.915913
2004-05-28 08:31:43 51°9.211 2°35.499 14.959575 4.001674 32.253421 10.915913
2004-05-28 08:31:47 51°9.211 2°35.504 14.958356 4.001252 32.250255 10.915913
2004-05-28 08:31:54 51°9.212 2°35.512 14.958356 4.001252 32.250255 10.915913
2004-05-28 08:31:59 51°9.212 2°35.519 14.958443 4.001358 32.251202 10.915913
2004-05-28 08:32:04 51°9.213 2°35.525 14.959706 4.001147 32.24993 10.882204
2004-05-28 08:32:07 51°9.213 2°35.529 14.95692 4.000831 32.24771 10.915913
2004-05-28 08:32:14 51°9.213 2°35.537 14.95483 4.00062 32.244571 10.915913
2004-05-28 08:32:19 51°9.213 2°35.544 14.953742 4.000514 32.244246 10.915913
2004-05-28 08:32:24 51°9.214 2°35.55 14.953742 4.000514 32.244246 10.915913
2004-05-28 08:32:28 51°9.214 2°35.555 14.952566 4.000304 32.242974 10.949623
2004-05-28 08:32:34 51°9.215 2°35.562 14.951913 3.999882 32.239184 10.949623
2004-05-28 08:32:38 51°9.215 2°35.567 14.950869 3.999671 32.238534 10.915913
2004-05-28 08:32:41 51°9.215 2°35.571 14.949606 3.999144 32.235042 10.949623
2004-05-28 08:32:48 51°9.216 2°35.58 14.948169 3.998933 32.23377 10.949623
2004-05-28 08:32:54 51°9.216 2°35.587 14.948169 3.998933 32.23377 10.949623
2004-05-28 08:32:58 51°9.216 2°35.592 14.946297 3.998722 32.232498 10.915913
2004-05-28 08:33:02 51°9.216 2°35.597 14.946384 3.998406 32.2309 10.915913
2004-05-28 08:33:07 51°9.217 2°35.604 14.945339 3.998301 32.231197 10.915913
2004-05-28 08:33:13 51°9.217 2°35.611 14.942814 3.997879 32.228652 10.915913
2004-05-28 08:33:18 51°9.218 2°35.618 14.940637 3.997774 32.227705 10.949623
2004-05-28 08:33:24 51°9.218 2°35.625 14.940637 3.997774 32.227705 10.949623
2004-05-28 08:33:26 51°9.218 2°35.628 14.939156 3.997246 32.224834 10.915913
2004-05-28 08:33:34 51°9.219 2°35.638 14.935412 3.997246 32.224834 10.915913
2004-05-28 08:33:38 51°9.219 2°35.643 14.934846 3.99693 32.222614 10.949623
2004-05-28 08:33:43 51°9.219 2°35.649 14.934367 3.996719 32.221964 10.949623
2004-05-28 08:33:47 51°9.219 2°35.654 14.930839 3.996298 32.220662 10.949623
2004-05-28 08:33:54 51°9.22 2°35.663 14.930839 3.996298 32.220662 10.949623
2004-05-28 08:33:58 51°9.22 2°35.668 14.931405 3.99556 32.215896 10.983332
2004-05-28 08:34:04 51°9.22 2°35.675 14.92496 3.99556 32.217763 10.983332
2004-05-28 08:34:08 51°9.22 2°35.68 14.922869 3.995243 32.215542 11.017042
2004-05-28 08:34:14 51°9.22 2°35.687 14.917294 3.995138 32.217084 11.017042
2004-05-28 08:34:18 51°9.22 2°35.692 14.915509 3.994611 32.21359 10.983332
2004-05-28 08:34:23 51°9.22 2°35.698 14.915509 3.994611 32.21359 10.983332
2004-05-28 08:34:28 51°9.22 2°35.705 14.908321 3.994716 32.216405 10.983332
2004-05-28 08:34:34 51°9.22 2°35.712 14.910064 3.994084 32.212585 10.983332
2004-05-28 08:34:37 51°9.22 2°35.716 14.902788 3.993662 32.212529 11.017042
2004-05-28 08:34:48 51°9.22 2°35.73 14.902135 3.993135 32.212146 11.08446
2004-05-28 08:34:54 51°9.221 2°35.737 14.902135 3.993135 32.212146 11.08446
2004-05-28 08:34:58 51°9.221 2°35.741 14.896122 3.992924 32.213363 11.08446
2004-05-28 08:35:03 51°9.221 2°35.747 14.898519 3.992081 32.208269 11.08446
2004-05-28 08:35:08 51°9.221 2°35.753 14.894859 3.991765 32.208537 11.11817
2004-05-28 08:35:14 51°9.221 2°35.759 14.896602 3.99187 32.211354 11.11817
2004-05-28 08:35:17 51°9.221 2°35.762 14.895077 3.991449 32.210052 11.11817
2004-05-28 08:35:23 51°9.221 2°35.769 14.895077 3.991449 32.210052 11.11817
2004-05-28 08:35:28 51°9.221 2°35.774 14.893682 3.991238 32.208155 11.11817
2004-05-28 08:35:34 51°9.222 2°35.78 14.892375 3.991132 32.209698 11.11817
2004-05-28 08:35:38 51°9.222 2°35.784 14.891417 3.990816 32.206853 11.151879
2004-05-28 08:35:42 51°9.222 2°35.788 14.891896 3.990711 32.206527 11.151879
2004-05-28 08:35:47 51°9.222 2°35.793 14.888018 3.9905 32.205253 11.151879
2004-05-28 08:35:53 51°9.222 2°35.799 14.888018 3.9905 32.205253 11.151879
2004-05-28 08:35:58 51°9.222 2°35.804 14.884314 3.9905 32.205876 11.185589
2004-05-28 08:36:03 51°9.223 2°35.809 14.884619 3.990184 32.205522 11.219298
2004-05-28 08:36:08 51°9.224 2°35.815 14.882048 3.990078 32.205196 11.185589
2004-05-28 08:36:14 51°9.225 2°35.825 14.880435 3.990078 32.205819 11.219298
2004-05-28 08:36:18 51°9.226 2°35.831 14.878866 3.989867 32.205168 11.253007
2004-05-28 08:36:22 51°9.228 2°35.838 14.878866 3.989867 32.205168 11.253007
2004-05-28 08:36:27 51°9.23 2°35.847 14.875728 3.989973 32.207363 11.320426
2004-05-28 08:36:33 51°9.234 2°35.858 14.8766 3.98934 32.20354 11.286717
2004-05-28 08:36:38 51°9.238 2°35.867 14.875423 3.989235 32.205083 11.354136
2004-05-28 08:36:42 51°9.242 2°35.874 14.878082 3.988497 32.200311 11.320426
2004-05-28 08:36:48 51°9.249 2°35.884 14.878823 3.988497 32.201557 11.354136
2004-05-28 08:36:54 51°9.256 2°35.892 14.878823 3.988497 32.201557 11.354136
2004-05-28 08:36:58 51°9.262 2°35.897 14.881176 3.988813 32.205027 11.455264
2004-05-28 08:37:02 51°9.268 2°35.901 14.886013 3.988286 32.200283 11.455264
2004-05-28 08:37:06 51°9.275 2°35.905 14.888236 3.988708 32.204078 11.488973
2004-05-28 08:37:13 51°9.288 2°35.909 14.889979 3.988603 32.202506 11.556392
2004-05-28 08:37:19 51°9.301 2°35.911 14.897735 3.988497 32.201557 11.590101
2004-05-28 08:37:24 51°9.313 2°35.911 14.897735 3.988497 32.201557 11.590101
2004-05-28 08:37:28 51°9.323 2°35.911 14.898519 3.988708 32.200963 11.522683
2004-05-28 08:37:34 51°9.339 2°35.91 14.905141 3.988813 32.200042 11.488973
2004-05-28 08:37:38 51°9.351 2°35.908 14.907755 3.988708 32.197848 11.421554
2004-05-28 08:37:42 51°9.364 2°35.906 14.910369 3.988813 32.19506 11.354136
2004-05-28 08:37:46 51°9.377 2°35.903 14.908931 3.989129 32.194791 11.286717
2004-05-28 08:37:54 51°9.405 2°35.896 14.908931 3.989129 32.194791 11.286717
2004-05-28 08:37:59 51°9.423 2°35.891 14.908931 3.989657 32.195798 11.253007
2004-05-28 08:38:03 51°9.437 2°35.887 14.908321 3.989867 32.195827 11.185589
2004-05-28 08:38:08 51°9.456 2°35.882 14.905228 3.989762 32.191766 11.151879
2004-05-28 08:38:14 51°9.479 2°35.877 14.902527 3.989973 32.192417 11.151879
2004-05-28 08:38:18 51°9.494 2°35.873 14.894249 3.989973 32.19055 11.11817
2004-05-28 08:38:23 51°9.513 2°35.868 14.894249 3.989973 32.19055 11.11817
2004-05-28 08:38:28 51°9.533 2°35.863 14.885795 3.989973 32.189306 11.11817
2004-05-28 08:38:34 51°9.556 2°35.857 14.89207 3.989973 32.189928 11.11817
2004-05-28 08:38:39 51°9.575 2°35.852 14.889543 3.989551 32.18738 11.08446
2004-05-28 08:38:44 51°9.594 2°35.847 14.89634 3.989024 32.186995 11.11817
2004-05-28 08:38:49 51°9.614 2°35.843 14.895077 3.988391 32.186907 11.11817
2004-05-28 08:38:53 51°9.63 2°35.839 14.895077 3.988391 32.186907 11.11817
2004-05-28 08:38:58 51°9.649 2°35.835 14.892942 3.988075 32.186552 11.11817
2004-05-28 08:39:04 51°9.673 2°35.829 14.893508 3.987864 32.185278 11.151879
2004-05-28 08:39:06 51°9.68 2°35.827 14.899042 3.988181 32.187501 11.151879
2004-05-28 08:39:14 51°9.712 2°35.82 14.892201 3.988392 32.18753 11.151879
2004-05-28 08:39:19 51°9.732 2°35.816 14.893508 3.98934 32.196066 11.151879
2004-05-28 08:39:24 51°9.751 2°35.811 14.893508 3.98934 32.196066 11.151879
2004-05-28 08:39:28 51°9.767 2°35.808 14.892157 3.990184 32.204276 11.151879
2004-05-28 08:39:34 51°9.791 2°35.803 14.892942 3.990922 32.20967 11.11817
2004-05-28 08:39:38 51°9.807 2°35.8 14.887059 3.991765 32.216635 11.151879
2004-05-28 08:39:42 51°9.823 2°35.796 14.883137 3.992187 32.222299 11.11817
2004-05-28 08:39:48 51°9.847 2°35.792 14.884183 3.992714 32.227042 11.11817
2004-05-28 08:39:54 51°9.871 2°35.787 14.884183 3.992714 32.227042 11.11817
2004-05-28 08:40:06 51°9.919 2°35.779 14.891765 3.99303 32.233628 11.08446
2004-05-28 08:40:14 51°9.951 2°35.773 14.875205 3.992819 32.234225 11.08446
2004-05-28 08:40:19 51°9.971 2°35.769 14.866052 3.993346 32.237722 11.11817
2004-05-28 08:40:24 51°9.991 2°35.766 14.866052 3.993346 32.237722 11.11817
2004-05-28 08:40:28 51°10.007 2°35.763 14.849747 3.993557 32.237748 11.08446
2004-05-28 08:40:34 51°10.031 2°35.758 14.839719 3.994401 32.244091 11.050751
2004-05-28 08:40:38 51°10.047 2°35.756 14.831956 3.996088 32.26364 11.08446
2004-05-28 08:40:44 51°10.071 2°35.753 14.820398 3.997669 32.28412 11.050751
2004-05-28 08:40:48 51°10.087 2°35.753 14.816996 3.998723 32.301113 11.017042
2004-05-28 08:40:54 51°10.111 2°35.753 14.816996 3.998723 32.301113 11.017042
2004-05-28 08:40:59 51°10.131 2°35.755 14.798367 3.999778 32.319365 11.08446
2004-05-28 08:41:04 51°10.151 2°35.758 14.783879 4.00041 32.334455 11.050751
2004-05-28 08:41:06 51°10.159 2°35.76 14.774015 4.000832 32.345147 11.017042
2004-05-28 08:41:13 51°10.186 2°35.765 14.769955 4.000832 32.35455 11.050751
2004-05-28 08:41:19 51°10.21 2°35.769 14.76105 4.000622 32.361429 11.050751
2004-05-28 08:41:23 51°10.226 2°35.773 14.76105 4.000622 32.361429 11.050751
2004-05-28 08:41:29 51°10.249 2°35.778 14.752841 4.000306 32.367362 11.017042
2004-05-28 08:41:34 51°10.269 2°35.782 14.73996 3.999884 32.374231 11.050751
2004-05-28 08:41:39 51°10.289 2°35.786 14.734894 3.999462 32.37922 11.017042
2004-05-28 08:41:43 51°10.305 2°35.789 14.726158 3.999252 32.382344 11.050751
2004-05-28 08:41:48 51°10.325 2°35.793 14.721004 3.999146 32.387679 11.050751
2004-05-28 08:41:54 51°10.348 2°35.798 14.721004 3.999146 32.387679 11.050751
2004-05-28 08:41:58 51°10.364 2°35.801 14.715499 3.998936 32.395838 11.08446
2004-05-28 08:42:02 51°10.38 2°35.804 14.710912 3.998092 32.393883 11.11817
2004-05-28 08:42:07 51°10.4 2°35.808 14.714713 3.997671 32.396367 11.185589
2004-05-28 08:42:13 51°10.424 2°35.813 14.704183 3.997355 32.398545 11.219298
2004-05-28 08:42:19 51°10.448 2°35.818 14.702305 3.996933 32.402291 11.253007
2004-05-28 08:42:23 51°10.464 2°35.821 14.702305 3.996933 32.402291 11.253007
2004-05-28 08:42:28 51°10.484 2°35.825 14.700382 3.996511 32.402888 11.286717
2004-05-28 08:42:34 51°10.507 2°35.83 14.698022 3.99609 32.401596 11.320426
2004-05-28 08:42:38 51°10.523 2°35.834 14.698634 3.995879 32.40221 11.354136
2004-05-28 08:42:44 51°10.547 2°35.842 14.698022 3.995773 32.403147 11.387845
2004-05-28 08:42:48 51°10.562 2°35.849 14.69575 3.995668 32.405345 11.387845
2004-05-28 08:42:54 51°10.585 2°35.863 14.69575 3.995668 32.405345 11.387845
2004-05-28 08:42:58 51°10.599 2°35.873 14.689807 3.995563 32.408173 11.488973
2004-05-28 08:43:04 51°10.621 2°35.892 14.703135 3.995352 32.406897 11.522683
2004-05-28 08:43:08 51°10.634 2°35.905 14.694352 3.995563 32.410065 11.556392
2004-05-28 08:43:14 51°10.654 2°35.928 14.69339 3.995668 32.411649 11.590101
2004-05-28 08:43:19 51°10.669 2°35.949 14.69977 3.995879 32.414186 11.623811
2004-05-28 08:43:22 51°10.678 2°35.962 14.69977 3.995879 32.414186 11.623811
2004-05-28 08:43:27 51°10.692 2°35.985 14.695881 3.996195 32.416416 11.69123
2004-05-28 08:43:34 51°10.71 2°36.018 14.685742 3.996406 32.417692 11.69123
2004-05-28 08:43:38 51°10.721 2°36.037 14.684999 3.996722 32.420553 11.724939
2004-05-28 08:43:43 51°10.734 2°36.062 14.685655 3.997039 32.423413 11.724939
2004-05-28 08:43:46 51°10.741 2°36.077 14.67971 3.997144 32.424997 11.758648
2004-05-28 08:43:54 51°10.761 2°36.117 14.67971 3.997144 32.424997 11.758648
2004-05-28 08:43:59 51°10.775 2°36.141 14.669219 3.996933 32.426244 11.792358
2004-05-28 08:44:02 51°10.783 2°36.155 14.660956 3.996723 32.428123 11.826067
2004-05-28 08:44:06 51°10.794 2°36.173 14.664935 3.996617 32.429693 11.859777
2004-05-28 08:44:14 51°10.817 2°36.21 14.661043 3.99609 32.428079 11.859777
2004-05-28 08:44:18 51°10.828 2°36.228 14.665503 3.996196 32.432189 11.893486
2004-05-28 08:44:24 51°10.846 2°36.255 14.665503 3.996196 32.432189 11.893486
2004-05-28 08:44:28 51°10.857 2°36.273 14.669481 3.995774 32.434687 11.960905
2004-05-28 08:44:34 51°10.875 2°36.3 14.663186 3.995563 32.436567 11.960905
2004-05-28 08:44:37 51°10.883 2°36.313 14.657414 3.995563 32.437831 11.960905
2004-05-28 08:44:43 51°10.901 2°36.34 14.654354 3.995458 32.437508 11.994614
2004-05-28 08:44:49 51°10.918 2°36.367 14.647051 3.995563 32.438462 11.960905
2004-05-28 08:44:54 51°10.933 2°36.389 14.647051 3.995563 32.438462 11.960905
2004-05-28 08:44:58 51°10.944 2°36.407 14.639485 3.995458 32.43814 11.927195
2004-05-28 08:45:02 51°10.956 2°36.425 14.632487 3.995669 32.442575 11.927195
2004-05-28 08:45:09 51°10.976 2°36.456 14.626231 3.99588 32.447012 11.960905
2004-05-28 08:45:14 51°10.99 2°36.479 14.626319 3.995985 32.451758 11.994614
2004-05-28 08:45:18 51°11.002 2°36.497 14.625094 3.996091 32.457771 12.028324
2004-05-28 08:45:23 51°11.016 2°36.519 14.625094 3.996091 32.457771 12.028324
2004-05-28 08:45:27 51°11.028 2°36.537 14.626756 3.996512 32.466651 12.129452
2004-05-28 08:45:34 51°11.048 2°36.568 14.630912 3.996407 32.468859 12.163161
2004-05-28 08:45:39 51°11.062 2°36.591 14.634018 3.996618 32.4752 12.196871
2004-05-28 08:45:44 51°11.077 2°36.613 14.633536 3.996723 32.478687 12.23058
2004-05-28 08:45:48 51°11.088 2°36.631 14.637385 3.996618 32.478998 12.264289
2004-05-28 08:45:53 51°11.103 2°36.653 14.637385 3.996618 32.478998 12.264289
2004-05-28 08:45:58 51°11.117 2°36.675 14.641628 3.996829 32.480275 12.297999
2004-05-28 08:46:04 51°11.134 2°36.702 14.652648 3.997145 32.481875 12.297999
2004-05-28 08:46:08 51°11.146 2°36.72 14.659863 3.997145 32.479342 12.297999
2004-05-28 08:46:14 51°11.163 2°36.747 14.677306 3.997567 32.481897 12.365418
2004-05-28 08:46:19 51°11.177 2°36.77 14.700207 3.997883 32.48223 12.399127
2004-05-28 08:46:24 51°11.192 2°36.792 14.700207 3.997883 32.48223 12.399127
2004-05-28 08:46:28 51°11.203 2°36.81 14.723537 3.998094 32.480975 12.365418
2004-05-28 08:46:34 51°11.22 2°36.837 14.737863 3.998515 32.479099 12.365418
2004-05-28 08:46:38 51°11.231 2°36.855 14.751619 3.999569 32.478523 12.365418
2004-05-28 08:46:43 51°11.245 2°36.877 14.766943 4.000096 32.47128 12.365418
2004-05-28 08:46:49 51°11.263 2°36.903 14.776808 4.000729 32.461208 12.331708
2004-05-28 08:46:54 51°11.277 2°36.925 14.776808 4.000729 32.461208 12.331708
2004-05-28 08:46:58 51°11.289 2°36.943 14.779471 4.001888 32.455283 12.297999
2004-05-28 08:47:04 51°11.306 2°36.969 14.776153 4.002204 32.448048 12.331708
2004-05-28 08:47:08 51°11.317 2°36.987 14.773273 4.003364 32.444658 12.331708
2004-05-28 08:47:14 51°11.334 2°37.014 14.768646 4.004207 32.440935 12.365418
2004-05-28 08:47:19 51°11.348 2°37.036 14.766594 4.00389 32.43115 12.399127
2004-05-28 08:47:23 51°11.36 2°37.054 14.766594 4.00389 32.43115 12.399127
2004-05-28 08:47:29 51°11.377 2°37.08 14.764368 4.004312 32.431181 12.399127
2004-05-28 08:47:33 51°11.388 2°37.098 14.764673 4.003785 32.426421 12.432836
2004-05-28 08:47:38 51°11.402 2°37.12 14.762403 4.003152 32.421338 12.432836
2004-05-28 08:47:42 51°11.414 2°37.138 14.760176 4.00252 32.417514 12.432836
2004-05-28 08:47:46 51°11.425 2°37.156 14.760613 4.001782 32.412737 12.500255
2004-05-28 08:47:54 51°11.448 2°37.191 14.760613 4.001782 32.412737 12.500255
2004-05-28 08:47:58 51°11.459 2°37.209 14.762228 4.00136 32.410188 12.500255
2004-05-28 08:48:04 51°11.477 2°37.235 14.760613 4.001044 32.407331 12.500255
2004-05-28 08:48:08 51°11.488 2°37.253 14.764149 3.99999 32.399698 12.533965
2004-05-28 08:48:14 51°11.505 2°37.28 14.770173 3.999884 32.399375 12.466546
2004-05-28 08:48:19 51°11.52 2°37.302 14.773142 3.999674 32.398729 12.500255
2004-05-28 08:48:23 51°11.531 2°37.32 14.773142 3.999674 32.398729 12.500255
2004-05-28 08:48:28 51°11.545 2°37.342 14.77755 3.999252 32.394291 12.533965
2004-05-28 08:48:34 51°11.563 2°37.368 14.780562 3.99883 32.389225 12.533965
2004-05-28 08:48:38 51°11.574 2°37.386 14.785057 3.998725 32.385758 12.533965
2004-05-28 08:48:42 51°11.585 2°37.404 14.789814 3.998408 32.381016 12.533965
2004-05-28 08:48:48 51°11.602 2°37.431 14.794614 3.998725 32.3801 12.500255
2004-05-28 08:48:53 51°11.616 2°37.454 14.794614 3.998725 32.3801 12.500255
2004-05-28 08:48:59 51°11.633 2°37.482 14.799327 3.998408 32.374102 12.466546
2004-05-28 08:49:03 51°11.643 2°37.5 14.803166 3.998303 32.370637 12.500255
2004-05-28 08:49:08 51°11.657 2°37.524 14.800286 3.998619 32.369723 12.500255
2004-05-28 08:49:14 51°11.673 2°37.552 14.799981 3.998514 32.365631 12.432836
2004-05-28 08:49:18 51°11.683 2°37.57 14.800286 3.99883 32.36409 12.432836
2004-05-28 08:49:22 51°11.694 2°37.589 14.800286 3.99883 32.36409 12.432836
2004-05-28 08:49:26 51°11.705 2°37.607 14.799676 3.99883 32.360951 12.432836
2004-05-28 08:49:34 51°11.727 2°37.644 14.800199 3.998724 32.358744 12.466546
2004-05-28 08:49:38 51°11.737 2°37.664 14.799457 3.998619 32.357165 12.500255
2004-05-28 08:49:43 51°11.751 2°37.687 14.797101 3.997986 32.351459 12.533965
2004-05-28 08:49:49 51°11.767 2°37.715 14.795661 3.997354 32.345125 12.533965
2004-05-28 08:49:53 51°11.778 2°37.733 14.795661 3.997354 32.345125 12.533965
2004-05-28 08:49:59 51°11.794 2°37.761 14.791472 3.99651 32.337516 12.533965
2004-05-28 08:50:03 51°11.805 2°37.78 14.790556 3.995878 32.332437 12.567674
2004-05-28 08:50:08 51°11.818 2°37.804 14.790207 3.995351 32.328309 12.533965
2004-05-28 08:50:14 51°11.834 2°37.832 14.793741 3.994296 32.320053 12.567674
2004-05-28 08:50:18 51°11.845 2°37.851 14.791472 3.99398 32.318453 12.601383
2004-05-28 08:50:24 51°11.861 2°37.879 14.791472 3.99398 32.318453 12.601383
2004-05-28 08:50:28 51°11.872 2°37.897 14.792389 3.992926 32.312077 12.635093
2004-05-28 08:50:33 51°11.886 2°37.921 14.791516 3.992399 32.308575 12.668802
2004-05-28 08:50:38 51°11.899 2°37.944 14.793654 3.991977 32.303517 12.668802
2004-05-28 08:50:43 51°11.912 2°37.968 14.788897 3.991872 32.301939 12.668802
2004-05-28 08:50:48 51°11.926 2°37.991 14.786846 3.991345 32.296558 12.736221
2004-05-28 08:50:54 51°11.942 2°38.019 14.786846 3.991345 32.296558 12.736221
2004-05-28 08:50:59 51°11.956 2°38.043 14.784708 3.99145 32.297509 12.702512
2004-05-28 08:51:03 51°11.967 2°38.061 14.784184 3.990712 32.290852 12.76993
2004-05-28 08:51:07 51°11.978 2°38.08 14.787196 3.990501 32.290203 12.80364
2004-05-28 08:51:14 51°11.996 2°38.113 14.790643 3.990185 32.288602 12.80364
2004-05-28 08:51:18 51°12.007 2°38.132 14.784533 3.989553 32.285402 12.871059
2004-05-28 08:51:24 51°12.024 2°38.16 14.784533 3.989553 32.285402 12.871059
2004-05-28 08:51:26 51°12.029 2°38.169 14.776677 3.989658 32.286979 12.871059
2004-05-28 08:51:34 51°12.051 2°38.207 14.763494 3.988815 32.27937 12.938477
2004-05-28 08:51:38 51°12.061 2°38.226 14.751139 3.988498 32.276517 12.938477
2004-05-28 08:51:44 51°12.077 2°38.254 14.745986 3.988077 32.272713 12.938477
2004-05-28 08:51:48 51°12.088 2°38.273 14.740746 3.986917 32.264756 12.972187
2004-05-28 08:51:54 51°12.104 2°38.301 14.740746 3.986917 32.264756 12.972187
2004-05-28 08:51:58 51°12.115 2°38.32 14.726682 3.986074 32.263408 12.972187
2004-05-28 08:52:04 51°12.131 2°38.348 14.727206 3.984282 32.25475 13.107024
2004-05-28 08:52:06 51°12.136 2°38.358 14.721921 3.983017 32.249595 13.107024
2004-05-28 08:52:14 51°12.158 2°38.396 14.720086 3.982068 32.248546 13.140734
2004-05-28 08:52:17 51°12.166 2°38.41 14.719387 3.980803 32.244015 13.174443
2004-05-28 08:52:24 51°12.185 2°38.442 14.719387 3.980803 32.244015 13.174443
2004-05-28 08:52:27 51°12.193 2°38.457 14.715805 3.979643 32.239808 13.174443
2004-05-28 08:52:34 51°12.212 2°38.489 14.717028 3.978589 32.234047 13.174443
2004-05-28 08:52:47 51°12.248 2°38.55 14.713228 3.976903 32.225703 13.174443
2004-05-28 08:52:54 51°12.267 2°38.583 14.713228 3.976903 32.225703 13.174443
2004-05-28 08:52:59 51°12.28 2°38.606 14.721004 3.976481 32.223774 13.174443
2004-05-28 08:53:03 51°12.291 2°38.625 14.716198 3.976376 32.222822 13.174443
2004-05-28 08:53:08 51°12.305 2°38.649 14.722052 3.976059 32.220591 13.107024
2004-05-28 08:53:14 51°12.321 2°38.677 14.713708 3.975532 32.217083 13.107024
2004-05-28 08:53:18 51°12.331 2°38.696 14.717334 3.975849 32.21806 13.140734
2004-05-28 08:53:22 51°12.342 2°38.715 14.717334 3.975849 32.21806 13.140734
2004-05-28 08:53:26 51°12.353 2°38.734 14.718295 3.975743 32.217108 13.073315
2004-05-28 08:53:34 51°12.375 2°38.771 14.71397 3.975743 32.215855 13.073315
2004-05-28 08:53:39 51°12.388 2°38.795 14.712485 3.975848 32.217434 13.107024
2004-05-28 08:53:44 51°12.402 2°38.819 14.706761 3.975321 32.214552 13.140734
2004-05-28 08:53:49 51°12.415 2°38.842 14.708771 3.975005 32.211069 13.073315
2004-05-28 08:53:54 51°12.429 2°38.866 14.708771 3.975005 32.211069 13.073315
2004-05-28 08:53:58 51°12.44 2°38.885 14.700819 3.975216 32.2136 13.107024
2004-05-28 08:54:02 51°12.451 2°38.903 14.698328 3.9749 32.212622 13.073315
2004-05-28 08:54:07 51°12.465 2°38.926 14.691555 3.975005 32.214827 13.039606
2004-05-28 08:54:13 51°12.481 2°38.955 14.684037 3.974267 32.211292 13.039606
2004-05-28 08:54:19 51°12.497 2°38.983 14.680541 3.974162 32.212219 13.073315
2004-05-28 08:54:24 51°12.511 2°39.006 14.680541 3.974162 32.212219 13.073315
2004-05-28 08:54:28 51°12.521 2°39.025 14.682158 3.973213 32.205526 13.073315
2004-05-28 08:54:34 51°12.538 2°39.053 14.692341 3.972581 32.204822 13.039606
2004-05-28 08:54:38 51°12.549 2°39.072 14.695444 3.972581 32.207955 13.073315
2004-05-28 08:54:42 51°12.56 2°39.091 14.696974 3.971527 32.20344 13.107024
2004-05-28 08:54:49 51°12.579 2°39.124 14.690899 3.971 32.201182 13.107024
2004-05-28 08:54:54 51°12.592 2°39.147 14.690899 3.971 32.201182 13.107024
2004-05-28 08:54:59 51°12.606 2°39.17 14.685305 3.971105 32.200882 13.073315
2004-05-28 08:55:04 51°12.62 2°39.194 14.670749 3.970683 32.194565 13.073315
2004-05-28 08:55:07 51°12.628 2°39.208 14.666159 3.970578 32.191733 13.073315
2004-05-28 08:55:14 51°12.647 2°39.241 14.661043 3.970051 32.186344 13.107024
2004-05-28 08:55:18 51°12.658 2°39.259 14.653217 3.968891 32.178369 13.073315
2004-05-28 08:55:22 51°12.668 2°39.278 14.653217 3.968891 32.178369 13.073315
2004-05-28 08:55:27 51°12.682 2°39.302 14.649281 3.967626 32.171945 13.107024
2004-05-28 08:55:34 51°12.701 2°39.335 14.644252 3.966572 32.168052 13.107024
2004-05-28 08:55:38 51°12.712 2°39.353 14.637429 3.965834 32.165138 13.107024
2004-05-28 08:55:44 51°12.728 2°39.381 14.634061 3.96478 32.16187 13.140734
2004-05-28 08:55:48 51°12.739 2°39.4 14.631306 3.96362 32.155769 13.174443
2004-05-28 08:55:54 51°12.755 2°39.429 14.631306 3.96362 32.155769 13.174443
2004-05-28 08:55:58 51°12.766 2°39.448 14.637385 3.962566 32.151872 13.140734